Wetterdaten: Samstag, 16.02.2019
Datum Zeit Temp. Aussen Temp. o. S. +5cm Feuchte Auss Luftdruck Regen Sonnenschein Regendauer Solar Windben Empfang
16.02.2019 00:00 7,9 C 6,7 C 6,1 C 68 % 1024,8 hPa 0,0 l/m 0 min 0 min 0 W/m 16,1 km/h (3 Bft) 97,87 %
16.02.2019 00:02 7,8 C 6,7 C 5,6 C 69 % 1024,8 hPa 0,0 l/m 0 min 0 min 0 W/m 16,1 km/h (3 Bft) 97,44 %
16.02.2019 00:04 7,8 C 6,7 C 5,6 C 68 % 1024,8 hPa 0,0 l/m 0 min 0 min 0 W/m 12,9 km/h (3 Bft) 93,62 %
16.02.2019 00:07 7,7 C 6,1 C 5,6 C 69 % 1024,9 hPa 0,0 l/m 0 min 0 min 0 W/m 9,7 km/h (2 Bft) 98,57 %
16.02.2019 00:08 7,7 C 6,1 C 5,6 C 69 % 1024,9 hPa 0,0 l/m 0 min 0 min 0 W/m 12,9 km/h (3 Bft) 95,65 %
16.02.2019 00:10 7,6 C 6,1 C 5,6 C 69 % 1024,8 hPa 0,0 l/m 0 min 0 min 0 W/m 9,7 km/h (2 Bft) 95,74 %
16.02.2019 00:12 7,6 C 6,1 C 5,6 C 69 % 1024,7 hPa 0,0 l/m 0 min 0 min 0 W/m 6,4 km/h (2 Bft) 95,74 %
16.02.2019 00:14 7,5 C 6,1 C 5,0 C 69 % 1024,7 hPa 0,0 l/m 0 min 0 min 0 W/m 9,7 km/h (2 Bft) 95,74 %
16.02.2019 00:16 7,4 C 6,1 C 5,0 C 69 % 1024,7 hPa 0,0 l/m 0 min 0 min 0 W/m 12,9 km/h (3 Bft) 100,00 %
16.02.2019 00:18 7,4 C 6,1 C 5,6 C 70 % 1024,7 hPa 0,0 l/m 0 min 0 min 0 W/m 12,9 km/h (3 Bft) 100,00 %
16.02.2019 00:20 7,3 C 6,1 C 5,0 C 70 % 1024,6 hPa 0,0 l/m 0 min 0 min 0 W/m 12,9 km/h (3 Bft) 95,74 %
16.02.2019 00:22 7,3 C 6,1 C 5,6 C 70 % 1024,6 hPa 0,0 l/m 0 min 0 min 0 W/m 16,1 km/h (3 Bft) 93,62 %
16.02.2019 00:24 7,2 C 6,1 C 5,6 C 70 % 1024,7 hPa 0,0 l/m 0 min 0 min 0 W/m 16,1 km/h (3 Bft) 91,49 %
16.02.2019 00:26 7,2 C 6,1 C 5,6 C 70 % 1024,7 hPa 0,0 l/m 0 min 0 min 0 W/m 16,1 km/h (3 Bft) 97,87 %
16.02.2019 00:28 7,1 C 6,1 C 5,6 C 70 % 1024,7 hPa 0,0 l/m 0 min 0 min 0 W/m 9,7 km/h (2 Bft) 91,49 %
16.02.2019 00:30 7,1 C 6,1 C 5,0 C 71 % 1024,7 hPa 0,0 l/m 0 min 0 min 0 W/m 9,7 km/h (2 Bft) 97,83 %
16.02.2019 00:32 7,1 C 6,1 C 5,0 C 71 % 1024,7 hPa 0,0 l/m 0 min 0 min 0 W/m 9,7 km/h (2 Bft) 97,87 %
16.02.2019 00:34 7,0 C 6,1 C 5,0 C 71 % 1024,7 hPa 0,0 l/m 0 min 0 min 0 W/m 22,5 km/h (4 Bft) 95,74 %
16.02.2019 00:36 7,0 C 6,1 C 5,6 C 71 % 1024,7 hPa 0,0 l/m 0 min 0 min 0 W/m 16,1 km/h (3 Bft) 97,87 %
16.02.2019 00:38 7,0 C 6,1 C 5,0 C 71 % 1024,7 hPa 0,0 l/m 0 min 0 min 0 W/m 9,7 km/h (2 Bft) 97,87 %
16.02.2019 00:40 6,9 C 6,1 C 5,0 C 71 % 1024,7 hPa 0,0 l/m 0 min 0 min 0 W/m 9,7 km/h (2 Bft) 97,87 %
16.02.2019 00:42 6,9 C 6,1 C 5,0 C 71 % 1024,7 hPa 0,0 l/m 0 min 0 min 0 W/m 9,7 km/h (2 Bft) 89,13 %
16.02.2019 00:44 6,9 C 6,1 C 5,0 C 71 % 1024,7 hPa 0,0 l/m 0 min 0 min 0 W/m 9,7 km/h (2 Bft) 95,74 %
16.02.2019 00:46 6,9 C 6,1 C 5,0 C 71 % 1024,7 hPa 0,0 l/m 0 min 0 min 0 W/m 9,7 km/h (2 Bft) 95,74 %
16.02.2019 00:48 6,9 C 6,1 C 5,0 C 71 % 1024,7 hPa 0,0 l/m 0 min 0 min 0 W/m 9,7 km/h (2 Bft) 95,74 %
16.02.2019 00:50 6,8 C 6,1 C 5,0 C 71 % 1024,7 hPa 0,0 l/m 0 min 0 min 0 W/m 12,9 km/h (3 Bft) 95,74 %
16.02.2019 00:52 6,8 C 6,1 C 5,0 C 71 % 1024,7 hPa 0,0 l/m 0 min 0 min 0 W/m 9,7 km/h (2 Bft) 93,62 %
16.02.2019 00:54 6,8 C 6,1 C 5,0 C 71 % 1024,7 hPa 0,0 l/m 0 min 0 min 0 W/m 16,1 km/h (3 Bft) 93,48 %
16.02.2019 00:56 6,8 C 6,1 C 5,0 C 71 % 1024,7 hPa 0,0 l/m 0 min 0 min 0 W/m 9,7 km/h (2 Bft) 95,74 %
16.02.2019 00:58 6,8 C 6,1 C 5,0 C 71 % 1024,7 hPa 0,0 l/m 0 min 0 min 0 W/m 12,9 km/h (3 Bft) 95,74 %
16.02.2019 01:00 6,8 C 6,1 C 5,0 C 72 % 1024,7 hPa 0,0 l/m 0 min 0 min 0 W/m 16,1 km/h (3 Bft) 97,87 %
16.02.2019 01:02 6,8 C 6,1 C 5,0 C 72 % 1024,7 hPa 0,0 l/m 0 min 0 min 0 W/m 22,5 km/h (4 Bft) 95,74 %
16.02.2019 01:04 6,7 C 6,1 C 5,6 C 72 % 1024,7 hPa 0,0 l/m 0 min 0 min 0 W/m 25,7 km/h (4 Bft) 95,74 %
16.02.2019 01:06 6,7 C 6,1 C 5,6 C 72 % 1024,6 hPa 0,0 l/m 0 min 0 min 0 W/m 12,9 km/h (3 Bft) 97,83 %
16.02.2019 01:08 6,8 C 6,1 C 5,6 C 72 % 1024,6 hPa 0,0 l/m 0 min 0 min 0 W/m 19,3 km/h (3 Bft) 97,87 %
16.02.2019 01:10 6,7 C 6,1 C 5,6 C 72 % 1024,7 hPa 0,0 l/m 0 min 0 min 0 W/m 19,3 km/h (3 Bft) 95,74 %
16.02.2019 01:12 6,7 C 6,1 C 5,6 C 72 % 1024,7 hPa 0,0 l/m 0 min 0 min 0 W/m 12,9 km/h (3 Bft) 95,74 %
16.02.2019 01:14 6,7 C 6,1 C 5,6 C 72 % 1024,6 hPa 0,0 l/m 0 min 0 min 0 W/m 12,9 km/h (3 Bft) 95,74 %
16.02.2019 01:16 6,7 C 6,1 C 5,6 C 72 % 1024,6 hPa 0,0 l/m 0 min 0 min 0 W/m 25,7 km/h (4 Bft) 97,87 %
16.02.2019 01:18 6,7 C 6,1 C 5,6 C 72 % 1024,6 hPa 0,0 l/m 0 min 0 min 0 W/m 12,9 km/h (3 Bft) 97,83 %
16.02.2019 01:20 6,7 C 6,1 C 5,6 C 72 % 1024,7 hPa 0,0 l/m 0 min 0 min 0 W/m 19,3 km/h (3 Bft) 97,87 %
16.02.2019 01:22 6,7 C 6,1 C 5,6 C 72 % 1024,7 hPa 0,0 l/m 0 min 0 min 0 W/m 16,1 km/h (3 Bft) 97,87 %
16.02.2019 01:24 6,8 C 6,1 C 5,6 C 72 % 1024,7 hPa 0,0 l/m 0 min 0 min 0 W/m 16,1 km/h (3 Bft) 97,87 %
16.02.2019 01:26 6,7 C 6,1 C 5,6 C 72 % 1024,7 hPa 0,0 l/m 0 min 0 min 0 W/m 16,1 km/h (3 Bft) 97,87 %
16.02.2019 01:28 6,7 C 6,1 C 5,0 C 72 % 1024,7 hPa 0,0 l/m 0 min 0 min 0 W/m 12,9 km/h (3 Bft) 97,83 %
16.02.2019 01:30 6,7 C 6,1 C 5,0 C 72 % 1024,7 hPa 0,0 l/m 0 min 0 min 0 W/m 12,9 km/h (3 Bft) 95,74 %
16.02.2019 01:32 6,7 C 6,1 C 5,0 C 72 % 1024,7 hPa 0,0 l/m 0 min 0 min 0 W/m 16,1 km/h (3 Bft) 97,87 %
16.02.2019 01:34 6,7 C 6,1 C 5,0 C 72 % 1024,6 hPa 0,0 l/m 0 min 0 min 0 W/m 16,1 km/h (3 Bft) 100,00 %
16.02.2019 01:36 6,7 C 6,1 C 5,0 C 72 % 1024,6 hPa 0,0 l/m 0 min 0 min 0 W/m 19,3 km/h (3 Bft) 100,00 %
16.02.2019 01:38 6,7 C 6,1 C 5,0 C 72 % 1024,6 hPa 0,0 l/m 0 min 0 min 0 W/m 19,3 km/h (3 Bft) 97,87 %
16.02.2019 01:40 6,7 C 6,1 C 5,0 C 72 % 1024,6 hPa 0,0 l/m 0 min 0 min 0 W/m 12,9 km/h (3 Bft) 100,00 %
16.02.2019 01:42 6,7 C 6,1 C 5,0 C 72 % 1024,6 hPa 0,0 l/m 0 min 0 min 0 W/m 16,1 km/h (3 Bft) 97,87 %
16.02.2019 01:44 6,7 C 6,1 C 5,0 C 72 % 1024,6 hPa 0,0 l/m 0 min 0 min 0 W/m 9,7 km/h (2 Bft) 97,87 %
16.02.2019 01:46 6,7 C 6,1 C 5,0 C 72 % 1024,5 hPa 0,0 l/m 0 min 0 min 0 W/m 12,9 km/h (3 Bft) 97,87 %
16.02.2019 01:48 6,7 C 6,1 C 5,0 C 72 % 1024,5 hPa 0,0 l/m 0 min 0 min 0 W/m 16,1 km/h (3 Bft) 100,00 %
16.02.2019 01:50 6,7 C 6,1 C 5,0 C 72 % 1024,4 hPa 0,0 l/m 0 min 0 min 0 W/m 16,1 km/h (3 Bft) 97,87 %
16.02.2019 01:52 6,7 C 6,1 C 5,0 C 72 % 1024,6 hPa 0,0 l/m 0 min 0 min 0 W/m 9,7 km/h (2 Bft) 100,00 %
16.02.2019 01:54 6,7 C 6,1 C 5,0 C 72 % 1024,4 hPa 0,0 l/m 0 min 0 min 0 W/m 9,7 km/h (2 Bft) 100,00 %
16.02.2019 01:56 6,7 C 6,1 C 5,0 C 72 % 1024,4 hPa 0,0 l/m 0 min 0 min 0 W/m 9,7 km/h (2 Bft) 100,00 %
16.02.2019 01:58 6,7 C 6,1 C 5,0 C 72 % 1024,3 hPa 0,0 l/m 0 min 0 min 0 W/m 12,9 km/h (3 Bft) 100,00 %
16.02.2019 02:00 6,7 C 6,1 C 5,0 C 72 % 1024,3 hPa 0,0 l/m 0 min 0 min 0 W/m 16,1 km/h (3 Bft) 100,00 %
16.02.2019 02:02 6,7 C 6,1 C 5,0 C 72 % 1024,4 hPa 0,0 l/m 0 min 0 min 0 W/m 16,1 km/h (3 Bft) 97,87 %
16.02.2019 02:04 6,6 C 6,1 C 5,0 C 72 % 1024,3 hPa 0,0 l/m 0 min 0 min 0 W/m 9,7 km/h (2 Bft) 100,00 %
16.02.2019 02:06 6,6 C 5,6 C 5,0 C 72 % 1024,4 hPa 0,0 l/m 0 min 0 min 0 W/m 9,7 km/h (2 Bft) 97,87 %
16.02.2019 02:08 6,6 C 5,6 C 5,0 C 72 % 1024,4 hPa 0,0 l/m 0 min 0 min 0 W/m 12,9 km/h (3 Bft) 100,00 %
16.02.2019 02:10 6,6 C 5,6 C 5,0 C 72 % 1024,3 hPa 0,0 l/m 0 min 0 min 0 W/m 22,5 km/h (4 Bft) 97,87 %
16.02.2019 02:12 6,6 C 5,6 C 5,0 C 72 % 1024,3 hPa 0,0 l/m 0 min 0 min 0 W/m 12,9 km/h (3 Bft) 100,00 %
16.02.2019 02:14 6,5 C 6,1 C 5,0 C 72 % 1024,3 hPa 0,0 l/m 0 min 0 min 0 W/m 12,9 km/h (3 Bft) 100,00 %
16.02.2019 02:16 6,5 C 6,1 C 5,0 C 72 % 1024,2 hPa 0,0 l/m 0 min 0 min 0 W/m 16,1 km/h (3 Bft) 100,00 %
16.02.2019 02:18 6,5 C 6,1 C 5,0 C 72 % 1024,3 hPa 0,0 l/m 0 min 0 min 0 W/m 19,3 km/h (3 Bft) 100,00 %
16.02.2019 02:20 6,5 C 6,1 C 5,0 C 72 % 1024,2 hPa 0,0 l/m 0 min 0 min 0 W/m 16,1 km/h (3 Bft) 100,00 %
16.02.2019 02:22 6,5 C 6,1 C 5,0 C 72 % 1024,2 hPa 0,0 l/m 0 min 0 min 0 W/m 16,1 km/h (3 Bft) 100,00 %
16.02.2019 02:24 6,5 C 6,1 C 5,0 C 72 % 1024,3 hPa 0,0 l/m 0 min 0 min 0 W/m 22,5 km/h (4 Bft) 100,00 %
16.02.2019 02:26 6,5 C 6,1 C 5,0 C 72 % 1024,3 hPa 0,0 l/m 0 min 0 min 0 W/m 12,9 km/h (3 Bft) 97,83 %
16.02.2019 02:28 6,4 C 5,6 C 5,0 C 72 % 1024,3 hPa 0,0 l/m 0 min 0 min 0 W/m 12,9 km/h (3 Bft) 97,87 %
16.02.2019 02:30 6,4 C 5,6 C 5,0 C 73 % 1024,2 hPa 0,0 l/m 0 min 0 min 0 W/m 16,1 km/h (3 Bft) 97,87 %
16.02.2019 02:32 6,4 C 5,6 C 5,0 C 73 % 1024,2 hPa 0,0 l/m 0 min 0 min 0 W/m 25,7 km/h (4 Bft) 97,87 %
16.02.2019 02:34 6,4 C 5,6 C 5,0 C 73 % 1024,2 hPa 0,0 l/m 0 min 0 min 0 W/m 16,1 km/h (3 Bft) 97,87 %
16.02.2019 02:36 6,4 C 5,6 C 5,0 C 73 % 1024,2 hPa 0,0 l/m 0 min 0 min 0 W/m 16,1 km/h (3 Bft) 95,74 %
16.02.2019 02:38 6,4 C 5,6 C 5,0 C 73 % 1024,2 hPa 0,0 l/m 0 min 0 min 0 W/m 9,7 km/h (2 Bft) 97,83 %
16.02.2019 02:40 6,4 C 5,6 C 5,0 C 73 % 1024,2 hPa 0,0 l/m 0 min 0 min 0 W/m 12,9 km/h (3 Bft) 97,87 %
16.02.2019 02:42 6,4 C 5,6 C 5,0 C 73 % 1024,3 hPa 0,0 l/m 0 min 0 min 0 W/m 16,1 km/h (3 Bft) 95,74 %
16.02.2019 02:44 6,4 C 5,6 C 4,4 C 73 % 1024,2 hPa 0,0 l/m 0 min 0 min 0 W/m 16,1 km/h (3 Bft) 95,74 %
16.02.2019 02:46 6,4 C 5,6 C 4,4 C 73 % 1024,1 hPa 0,0 l/m 0 min 0 min 0 W/m 12,9 km/h (3 Bft) 85,11 %
16.02.2019 02:48 6,4 C 5,6 C 4,4 C 73 % 1024,2 hPa 0,0 l/m 0 min 0 min 0 W/m 12,9 km/h (3 Bft) 91,49 %
16.02.2019 02:50 6,3 C 5,6 C 4,4 C 73 % 1024,1 hPa 0,0 l/m 0 min 0 min 0 W/m 12,9 km/h (3 Bft) 93,48 %
16.02.2019 02:52 6,3 C 5,6 C 4,4 C 73 % 1024,1 hPa 0,0 l/m 0 min 0 min 0 W/m 9,7 km/h (2 Bft) 91,49 %
16.02.2019 02:54 6,3 C 5,6 C 4,4 C 73 % 1024,0 hPa 0,0 l/m 0 min 0 min 0 W/m 12,9 km/h (3 Bft) 93,62 %
16.02.2019 02:56 6,3 C 5,6 C 4,4 C 73 % 1024,1 hPa 0,0 l/m 0 min 0 min 0 W/m 9,7 km/h (2 Bft) 89,36 %
16.02.2019 02:58 6,2 C 5,6 C 4,4 C 73 % 1024,1 hPa 0,0 l/m 0 min 0 min 0 W/m 16,1 km/h (3 Bft) 97,87 %
16.02.2019 03:00 6,2 C 5,6 C 4,4 C 73 % 1024,1 hPa 0,0 l/m 0 min 0 min 0 W/m 16,1 km/h (3 Bft) 93,62 %
16.02.2019 03:02 6,2 C 5,0 C 4,4 C 73 % 1024,1 hPa 0,0 l/m 0 min 0 min 0 W/m 19,3 km/h (3 Bft) 97,83 %
16.02.2019 03:04 6,1 C 5,0 C 4,4 C 73 % 1024,1 hPa 0,0 l/m 0 min 0 min 0 W/m 12,9 km/h (3 Bft) 95,74 %
16.02.2019 03:06 6,1 C 5,0 C 4,4 C 73 % 1024,0 hPa 0,0 l/m 0 min 0 min 0 W/m 16,1 km/h (3 Bft) 93,62 %
16.02.2019 03:08 6,1 C 5,0 C 4,4 C 74 % 1024,0 hPa 0,0 l/m 0 min 0 min 0 W/m 16,1 km/h (3 Bft) 95,74 %
16.02.2019 03:10 6,0 C 5,0 C 4,4 C 73 % 1024,0 hPa 0,0 l/m 0 min 0 min 0 W/m 12,9 km/h (3 Bft) 93,62 %
16.02.2019 03:12 6,0 C 5,0 C 4,4 C 74 % 1023,9 hPa 0,0 l/m 0 min 0 min 0 W/m 9,7 km/h (2 Bft) 85,11 %
16.02.2019 03:14 5,9 C 5,0 C 4,4 C 74 % 1024,0 hPa 0,0 l/m 0 min 0 min 0 W/m 9,7 km/h (2 Bft) 84,78 %
16.02.2019 03:16 5,9 C 5,0 C 4,4 C 74 % 1024,0 hPa 0,0 l/m 0 min 0 min 0 W/m 16,1 km/h (3 Bft) 85,11 %
16.02.2019 03:18 5,9 C 5,0 C 4,4 C 74 % 1024,0 hPa 0,0 l/m 0 min 0 min 0 W/m 16,1 km/h (3 Bft) 95,74 %
16.02.2019 03:20 5,9 C 5,0 C 4,4 C 74 % 1024,0 hPa 0,0 l/m 0 min 0 min 0 W/m 16,1 km/h (3 Bft) 95,74 %
16.02.2019 03:22 5,9 C 5,0 C 4,4 C 74 % 1024,0 hPa 0,0 l/m 0 min 0 min 0 W/m 16,1 km/h (3 Bft) 97,87 %
16.02.2019 03:24 5,8 C 5,0 C 4,4 C 74 % 1024,0 hPa 0,0 l/m 0 min 0 min 0 W/m 12,9 km/h (3 Bft) 93,48 %
16.02.2019 03:26 5,8 C 5,0 C 4,4 C 74 % 1024,0 hPa 0,0 l/m 0 min 0 min 0 W/m 9,7 km/h (2 Bft) 93,62 %
16.02.2019 03:28 5,8 C 5,0 C 4,4 C 74 % 1024,0 hPa 0,0 l/m 0 min 0 min 0 W/m 12,9 km/h (3 Bft) 95,74 %
16.02.2019 03:30 5,8 C 5,0 C 4,4 C 75 % 1023,9 hPa 0,0 l/m 0 min 0 min 0 W/m 9,7 km/h (2 Bft) 97,87 %
16.02.2019 03:32 5,8 C 5,0 C 4,4 C 74 % 1024,0 hPa 0,0 l/m 0 min 0 min 0 W/m 12,9 km/h (3 Bft) 95,74 %
16.02.2019 03:34 5,8 C 5,0 C 4,4 C 74 % 1024,0 hPa 0,0 l/m 0 min 0 min 0 W/m 19,3 km/h (3 Bft) 93,62 %
16.02.2019 03:36 5,8 C 5,6 C 4,4 C 75 % 1024,0 hPa 0,0 l/m 0 min 0 min 0 W/m 12,9 km/h (3 Bft) 97,83 %
16.02.2019 03:38 5,8 C 5,0 C 4,4 C 75 % 1024,0 hPa 0,0 l/m 0 min 0 min 0 W/m 16,1 km/h (3 Bft) 97,87 %
16.02.2019 03:40 5,8 C 5,0 C 4,4 C 75 % 1024,0 hPa 0,0 l/m 0 min 0 min 0 W/m 12,9 km/h (3 Bft) 95,74 %
16.02.2019 03:42 5,8 C 5,0 C 4,4 C 75 % 1024,0 hPa 0,0 l/m 0 min 0 min 0 W/m 12,9 km/h (3 Bft) 95,74 %
16.02.2019 03:44 5,8 C 5,0 C 4,4 C 75 % 1023,9 hPa 0,0 l/m 0 min 0 min 0 W/m 25,7 km/h (4 Bft) 95,74 %
16.02.2019 03:46 5,8 C 5,0 C 4,4 C 75 % 1024,0 hPa 0,0 l/m 0 min 0 min 0 W/m 16,1 km/h (3 Bft) 93,62 %
16.02.2019 03:48 5,8 C 5,0 C 4,4 C 75 % 1024,0 hPa 0,0 l/m 0 min 0 min 0 W/m 19,3 km/h (3 Bft) 93,48 %
16.02.2019 03:50 5,8 C 5,0 C 4,4 C 75 % 1024,0 hPa 0,0 l/m 0 min 0 min 0 W/m 16,1 km/h (3 Bft) 95,74 %
16.02.2019 03:52 5,8 C 5,0 C 4,4 C 75 % 1023,9 hPa 0,0 l/m 0 min 0 min 0 W/m 16,1 km/h (3 Bft) 93,62 %
16.02.2019 03:54 5,8 C 5,0 C 4,4 C 75 % 1023,9 hPa 0,0 l/m 0 min 0 min 0 W/m 16,1 km/h (3 Bft) 91,49 %
16.02.2019 03:56 5,8 C 5,0 C 4,4 C 75 % 1023,9 hPa 0,0 l/m 0 min 0 min 0 W/m 22,5 km/h (4 Bft) 95,74 %
16.02.2019 03:58 5,8 C 5,0 C 4,4 C 75 % 1023,9 hPa 0,0 l/m 0 min 0 min 0 W/m 16,1 km/h (3 Bft) 95,74 %
16.02.2019 04:00 5,7 C 5,0 C 4,4 C 75 % 1023,9 hPa 0,0 l/m 0 min 0 min 0 W/m 25,7 km/h (4 Bft) 95,65 %
16.02.2019 04:02 5,7 C 5,0 C 4,4 C 75 % 1023,9 hPa 0,0 l/m 0 min 0 min 0 W/m 25,7 km/h (4 Bft) 96,88 %
16.02.2019 04:04 5,7 C 5,0 C 4,4 C 75 % 1023,9 hPa 0,0 l/m 0 min 0 min 0 W/m 16,1 km/h (3 Bft) 55,32 %
16.02.2019 04:06 5,7 C 5,0 C 4,4 C 75 % 1024,0 hPa 0,0 l/m 0 min 0 min 0 W/m 16,1 km/h (3 Bft) 89,36 %
16.02.2019 04:08 5,7 C 5,0 C 4,4 C 75 % 1024,0 hPa 0,0 l/m 0 min 0 min 0 W/m 19,3 km/h (3 Bft) 92,00 %
16.02.2019 04:10 5,7 C 5,0 C 3,9 C 75 % 1024,0 hPa 0,0 l/m 0 min 0 min 0 W/m 16,1 km/h (3 Bft) 97,87 %
16.02.2019 04:12 5,7 C 5,0 C 3,9 C 75 % 1023,9 hPa 0,0 l/m 0 min 0 min 0 W/m 19,3 km/h (3 Bft) 93,48 %
16.02.2019 04:14 5,6 C 5,0 C 3,9 C 75 % 1023,9 hPa 0,0 l/m 0 min 0 min 0 W/m 12,9 km/h (3 Bft) 93,62 %
16.02.2019 04:16 5,6 C 5,0 C 3,9 C 75 % 1023,8 hPa 0,0 l/m 0 min 0 min 0 W/m 25,7 km/h (4 Bft) 93,62 %
16.02.2019 04:18 5,6 C 5,0 C 3,9 C 75 % 1023,8 hPa 0,0 l/m 0 min 0 min 0 W/m 19,3 km/h (3 Bft) 95,74 %
16.02.2019 04:20 5,6 C 5,0 C 3,9 C 75 % 1023,8 hPa 0,0 l/m 0 min 0 min 0 W/m 16,1 km/h (3 Bft) 93,62 %
16.02.2019 04:22 5,5 C 5,0 C 3,9 C 76 % 1023,9 hPa 0,0 l/m 0 min 0 min 0 W/m 19,3 km/h (3 Bft) 95,74 %
16.02.2019 04:24 5,5 C 5,0 C 3,9 C 76 % 1023,9 hPa 0,0 l/m 0 min 0 min 0 W/m 22,5 km/h (4 Bft) 95,65 %
16.02.2019 04:26 5,5 C 4,4 C 3,9 C 76 % 1023,9 hPa 0,0 l/m 0 min 0 min 0 W/m 9,7 km/h (2 Bft) 87,23 %
16.02.2019 04:28 5,4 C 5,0 C 3,9 C 76 % 1023,8 hPa 0,0 l/m 0 min 0 min 0 W/m 22,5 km/h (4 Bft) 91,49 %
16.02.2019 04:30 5,4 C 5,0 C 3,9 C 76 % 1023,8 hPa 0,0 l/m 0 min 0 min 0 W/m 16,1 km/h (3 Bft) 89,36 %
16.02.2019 04:32 5,4 C 5,0 C 3,9 C 76 % 1023,8 hPa 0,0 l/m 0 min 0 min 0 W/m 16,1 km/h (3 Bft) 87,23 %
16.02.2019 04:34 5,4 C 4,4 C 3,9 C 76 % 1023,9 hPa 0,0 l/m 0 min 0 min 0 W/m 19,3 km/h (3 Bft) 97,87 %
16.02.2019 04:36 5,4 C 4,4 C 3,9 C 76 % 1023,9 hPa 0,0 l/m 0 min 0 min 0 W/m 9,7 km/h (2 Bft) 91,30 %
16.02.2019 04:38 5,4 C 4,4 C 3,9 C 76 % 1023,8 hPa 0,0 l/m 0 min 0 min 0 W/m 12,9 km/h (3 Bft) 97,87 %
16.02.2019 04:40 5,4 C 4,4 C 3,9 C 76 % 1023,8 hPa 0,0 l/m 0 min 0 min 0 W/m 16,1 km/h (3 Bft) 97,87 %
16.02.2019 04:42 5,3 C 4,4 C 3,9 C 76 % 1023,8 hPa 0,0 l/m 0 min 0 min 0 W/m 22,5 km/h (4 Bft) 93,62 %
16.02.2019 04:44 5,3 C 4,4 C 3,9 C 76 % 1023,7 hPa 0,0 l/m 0 min 0 min 0 W/m 16,1 km/h (3 Bft) 95,74 %
16.02.2019 04:46 5,3 C 4,4 C 3,9 C 77 % 1023,7 hPa 0,0 l/m 0 min 0 min 0 W/m 16,1 km/h (3 Bft) 97,83 %
16.02.2019 04:48 5,3 C 4,4 C 3,9 C 77 % 1023,7 hPa 0,0 l/m 0 min 0 min 0 W/m 22,5 km/h (4 Bft) 100,00 %
16.02.2019 04:50 5,3 C 4,4 C 3,9 C 77 % 1023,8 hPa 0,0 l/m 0 min 0 min 0 W/m 12,9 km/h (3 Bft) 93,62 %
16.02.2019 04:52 5,3 C 4,4 C 3,9 C 77 % 1023,8 hPa 0,0 l/m 0 min 0 min 0 W/m 12,9 km/h (3 Bft) 82,98 %
16.02.2019 04:54 5,2 C 4,4 C 3,9 C 77 % 1023,8 hPa 0,0 l/m 0 min 0 min 0 W/m 16,1 km/h (3 Bft) 91,49 %
16.02.2019 04:56 5,2 C 4,4 C 3,3 C 77 % 1023,7 hPa 0,0 l/m 0 min 0 min 0 W/m 9,7 km/h (2 Bft) 91,49 %
16.02.2019 04:58 5,2 C 4,4 C 3,3 C 77 % 1023,7 hPa 0,0 l/m 0 min 0 min 0 W/m 9,7 km/h (2 Bft) 95,65 %
16.02.2019 05:00 5,2 C 4,4 C 3,3 C 77 % 1023,7 hPa 0,0 l/m 0 min 0 min 0 W/m 9,7 km/h (2 Bft) 87,23 %
16.02.2019 05:02 5,2 C 4,4 C 3,3 C 77 % 1023,6 hPa 0,0 l/m 0 min 0 min 0 W/m 6,4 km/h (2 Bft) 95,74 %
16.02.2019 05:04 5,1 C 3,9 C 3,3 C 77 % 1023,7 hPa 0,0 l/m 0 min 0 min 0 W/m 9,7 km/h (2 Bft) 82,98 %
16.02.2019 05:05 5,1 C 4,4 C 3,3 C 77 % 1023,7 hPa 0,0 l/m 0 min 0 min 0 W/m 16,1 km/h (3 Bft) 90,35 %
16.02.2019 05:10 5,1 C 3,9 C 3,3 C 77 % 1023,7 hPa 0,0 l/m 0 min 0 min 0 W/m 12,9 km/h (3 Bft) 87,72 %
16.02.2019 05:12 5,0 C 3,9 C 3,3 C 77 % 1023,7 hPa 0,0 l/m 0 min 0 min 0 W/m 9,7 km/h (2 Bft) 83,33 %
16.02.2019 05:14 5,0 C 3,9 C 3,3 C 77 % 1023,7 hPa 0,0 l/m 0 min 0 min 0 W/m 9,7 km/h (2 Bft) 85,11 %
16.02.2019 05:19 4,9 C 4,4 C 3,3 C 78 % 1023,7 hPa 0,0 l/m 0 min 0 min 0 W/m 16,1 km/h (3 Bft) 89,06 %
16.02.2019 05:20 4,9 C 4,4 C 3,3 C 78 % 1023,7 hPa 0,0 l/m 0 min 0 min 0 W/m 9,7 km/h (2 Bft) 83,33 %
16.02.2019 05:22 4,9 C 4,4 C 3,3 C 78 % 1023,7 hPa 0,0 l/m 0 min 0 min 0 W/m 9,7 km/h (2 Bft) 86,96 %
16.02.2019 05:24 4,9 C 4,4 C 3,3 C 78 % 1023,7 hPa 0,0 l/m 0 min 0 min 0 W/m 9,7 km/h (2 Bft) 78,72 %
16.02.2019 05:26 4,9 C 4,4 C 3,3 C 78 % 1023,6 hPa 0,0 l/m 0 min 0 min 0 W/m 9,7 km/h (2 Bft) 80,85 %
16.02.2019 05:28 4,9 C 4,4 C 3,3 C 78 % 1023,6 hPa 0,0 l/m 0 min 0 min 0 W/m 16,1 km/h (3 Bft) 72,34 %
16.02.2019 05:30 4,9 C 4,4 C 3,3 C 78 % 1023,7 hPa 0,0 l/m 0 min 0 min 0 W/m 9,7 km/h (2 Bft) 76,60 %
16.02.2019 05:32 4,8 C 4,4 C 3,3 C 78 % 1023,6 hPa 0,0 l/m 0 min 0 min 0 W/m 9,7 km/h (2 Bft) 80,85 %
16.02.2019 05:34 4,8 C 4,4 C 3,3 C 78 % 1023,7 hPa 0,0 l/m 0 min 0 min 0 W/m 12,9 km/h (3 Bft) 86,96 %
16.02.2019 05:36 4,8 C 4,4 C 3,3 C 78 % 1023,6 hPa 0,0 l/m 0 min 0 min 0 W/m 12,9 km/h (3 Bft) 87,23 %
16.02.2019 05:38 4,8 C 4,4 C 3,3 C 78 % 1023,6 hPa 0,0 l/m 0 min 0 min 0 W/m 12,9 km/h (3 Bft) 87,23 %
16.02.2019 05:40 4,8 C 4,4 C 3,3 C 78 % 1023,6 hPa 0,0 l/m 0 min 0 min 0 W/m 12,9 km/h (3 Bft) 95,74 %
16.02.2019 05:42 4,8 C 4,4 C 3,3 C 78 % 1023,6 hPa 0,0 l/m 0 min 0 min 0 W/m 16,1 km/h (3 Bft) 91,49 %
16.02.2019 05:44 4,8 C 4,4 C 3,3 C 78 % 1023,6 hPa 0,0 l/m 0 min 0 min 0 W/m 16,1 km/h (3 Bft) 95,74 %
16.02.2019 05:46 4,8 C 4,4 C 3,3 C 78 % 1023,6 hPa 0,0 l/m 0 min 0 min 0 W/m 12,9 km/h (3 Bft) 100,00 %
16.02.2019 05:48 4,8 C 4,4 C 3,3 C 78 % 1023,6 hPa 0,0 l/m 0 min 0 min 0 W/m 12,9 km/h (3 Bft) 87,23 %
16.02.2019 05:50 4,8 C 4,4 C 3,3 C 78 % 1023,5 hPa 0,0 l/m 0 min 0 min 0 W/m 9,7 km/h (2 Bft) 100,00 %
16.02.2019 05:52 4,8 C 4,4 C 3,3 C 78 % 1023,5 hPa 0,0 l/m 0 min 0 min 0 W/m 12,9 km/h (3 Bft) 93,62 %
16.02.2019 05:54 4,8 C 3,9 C 3,3 C 79 % 1023,5 hPa 0,0 l/m 0 min 0 min 0 W/m 16,1 km/h (3 Bft) 85,11 %
16.02.2019 05:56 4,8 C 3,9 C 3,3 C 79 % 1023,5 hPa 0,0 l/m 0 min 0 min 0 W/m 12,9 km/h (3 Bft) 87,23 %
16.02.2019 05:58 4,8 C 3,9 C 3,3 C 79 % 1023,5 hPa 0,0 l/m 0 min 0 min 0 W/m 12,9 km/h (3 Bft) 82,61 %
16.02.2019 06:00 4,7 C 3,9 C 3,3 C 79 % 1023,5 hPa 0,0 l/m 0 min 0 min 0 W/m 9,7 km/h (2 Bft) 78,72 %
16.02.2019 06:02 4,7 C 3,9 C 3,3 C 79 % 1023,5 hPa 0,0 l/m 0 min 0 min 0 W/m 16,1 km/h (3 Bft) 85,11 %
16.02.2019 06:04 4,7 C 3,9 C 3,3 C 79 % 1023,4 hPa 0,0 l/m 0 min 0 min 0 W/m 12,9 km/h (3 Bft) 85,11 %
16.02.2019 06:08 4,7 C 3,9 C 3,3 C 79 % 1023,4 hPa 0,0 l/m 0 min 0 min 0 W/m 16,1 km/h (3 Bft) 86,59 %
16.02.2019 06:10 4,7 C 3,9 C 3,3 C 79 % 1023,5 hPa 0,0 l/m 0 min 0 min 0 W/m 12,9 km/h (3 Bft) 85,11 %
16.02.2019 06:12 4,7 C 3,9 C 3,3 C 79 % 1023,5 hPa 0,0 l/m 0 min 0 min 0 W/m 16,1 km/h (3 Bft) 74,47 %
16.02.2019 06:14 4,6 C 3,9 C 3,3 C 79 % 1023,5 hPa 0,0 l/m 0 min 0 min 0 W/m 16,1 km/h (3 Bft) 71,74 %
16.02.2019 06:16 4,6 C 3,9 C 3,3 C 79 % 1023,6 hPa 0,0 l/m 0 min 0 min 0 W/m 12,9 km/h (3 Bft) 97,87 %
16.02.2019 06:18 4,6 C 3,9 C 3,3 C 79 % 1023,5 hPa 0,0 l/m 0 min 0 min 0 W/m 16,1 km/h (3 Bft) 97,87 %
16.02.2019 06:20 4,6 C 3,9 C 3,3 C 79 % 1023,5 hPa 0,0 l/m 0 min 0 min 0 W/m 16,1 km/h (3 Bft) 95,74 %
16.02.2019 06:22 4,6 C 3,9 C 3,3 C 79 % 1023,6 hPa 0,0 l/m 0 min 0 min 0 W/m 16,1 km/h (3 Bft) 70,21 %
16.02.2019 06:24 4,6 C 3,9 C 3,3 C 79 % 1023,6 hPa 0,0 l/m 0 min 0 min 0 W/m 9,7 km/h (2 Bft) 76,09 %
16.02.2019 06:26 4,6 C 3,9 C 3,3 C 79 % 1023,6 hPa 0,0 l/m 0 min 0 min 0 W/m 12,9 km/h (3 Bft) 76,60 %
16.02.2019 06:28 4,6 C 3,9 C 3,3 C 80 % 1023,6 hPa 0,0 l/m 0 min 0 min 0 W/m 9,7 km/h (2 Bft) 76,60 %
16.02.2019 06:30 4,5 C 3,9 C 3,3 C 80 % 1023,6 hPa 0,0 l/m 0 min 0 min 0 W/m 12,9 km/h (3 Bft) 100,00 %
16.02.2019 06:32 4,5 C 3,9 C 3,3 C 80 % 1023,5 hPa 0,0 l/m 0 min 0 min 0 W/m 16,1 km/h (3 Bft) 97,87 %
16.02.2019 06:34 4,5 C 3,9 C 3,3 C 80 % 1023,5 hPa 0,0 l/m 0 min 0 min 0 W/m 19,3 km/h (3 Bft) 95,74 %
16.02.2019 06:36 4,5 C 3,9 C 3,3 C 80 % 1023,5 hPa 0,0 l/m 0 min 0 min 0 W/m 16,1 km/h (3 Bft) 96,55 %
16.02.2019 06:38 4,5 C 3,9 C 3,3 C 80 % 1023,5 hPa 0,0 l/m 0 min 0 min 0 W/m 12,9 km/h (3 Bft) 97,14 %
16.02.2019 06:40 4,5 C 3,9 C 3,3 C 80 % 1023,6 hPa 0,0 l/m 0 min 0 min 0 W/m 16,1 km/h (3 Bft) 97,87 %
16.02.2019 06:42 4,5 C 3,9 C 3,3 C 80 % 1023,6 hPa 0,0 l/m 0 min 0 min 0 W/m 16,1 km/h (3 Bft) 91,49 %
16.02.2019 06:44 4,5 C 3,9 C 3,3 C 80 % 1023,6 hPa 0,0 l/m 0 min 0 min 0 W/m 16,1 km/h (3 Bft) 89,36 %
16.02.2019 06:46 4,4 C 3,9 C 2,8 C 80 % 1023,5 hPa 0,0 l/m 0 min 0 min 0 W/m 12,9 km/h (3 Bft) 94,34 %
16.02.2019 06:48 4,4 C 3,9 C 2,8 C 80 % 1023,6 hPa 0,0 l/m 0 min 0 min 0 W/m 12,9 km/h (3 Bft) 97,87 %
16.02.2019 06:50 4,4 C 3,9 C 2,8 C 80 % 1023,6 hPa 0,0 l/m 0 min 0 min 0 W/m 16,1 km/h (3 Bft) 95,74 %
16.02.2019 06:52 4,4 C 3,9 C 2,8 C 80 % 1023,5 hPa 0,0 l/m 0 min 0 min 0 W/m 16,1 km/h (3 Bft) 95,74 %
16.02.2019 06:54 4,4 C 3,9 C 2,8 C 80 % 1023,6 hPa 0,0 l/m 0 min 0 min 0 W/m 16,1 km/h (3 Bft) 97,83 %
16.02.2019 06:56 4,4 C 3,9 C 2,8 C 80 % 1023,6 hPa 0,0 l/m 0 min 0 min 0 W/m 12,9 km/h (3 Bft) 97,87 %
16.02.2019 06:58 4,4 C 3,9 C 2,8 C 80 % 1023,6 hPa 0,0 l/m 0 min 0 min 0 W/m 12,9 km/h (3 Bft) 87,23 %
16.02.2019 07:00 4,4 C 3,9 C 3,3 C 80 % 1023,5 hPa 0,0 l/m 0 min 0 min 0 W/m 12,9 km/h (3 Bft) 89,36 %
16.02.2019 07:02 4,4 C 3,9 C 2,8 C 80 % 1023,5 hPa 0,0 l/m 0 min 0 min 0 W/m 12,9 km/h (3 Bft) 95,74 %
16.02.2019 07:04 4,4 C 3,9 C 3,3 C 80 % 1023,5 hPa 0,0 l/m 0 min 0 min 0 W/m 22,5 km/h (4 Bft) 95,74 %
16.02.2019 07:06 4,4 C 3,9 C 3,3 C 80 % 1023,6 hPa 0,0 l/m 0 min 0 min 0 W/m 12,9 km/h (3 Bft) 96,55 %
16.02.2019 07:08 4,4 C 3,9 C 2,8 C 80 % 1023,5 hPa 0,0 l/m 0 min 0 min 0 W/m 16,1 km/h (3 Bft) 94,44 %
16.02.2019 07:10 4,4 C 3,9 C 2,8 C 80 % 1023,5 hPa 0,0 l/m 0 min 0 min 0 W/m 12,9 km/h (3 Bft) 93,62 %
16.02.2019 07:12 4,4 C 3,9 C 2,8 C 80 % 1023,5 hPa 0,0 l/m 0 min 0 min 0 W/m 16,1 km/h (3 Bft) 95,74 %
16.02.2019 07:14 4,4 C 3,9 C 2,8 C 80 % 1023,4 hPa 0,0 l/m 0 min 0 min 0 W/m 16,1 km/h (3 Bft) 93,62 %
16.02.2019 07:16 4,4 C 3,9 C 2,8 C 80 % 1023,5 hPa 0,0 l/m 0 min 0 min 0 W/m 19,3 km/h (3 Bft) 93,62 %
16.02.2019 07:18 4,3 C 3,9 C 2,8 C 80 % 1023,5 hPa 0,0 l/m 0 min 0 min 0 W/m 16,1 km/h (3 Bft) 93,62 %
16.02.2019 07:20 4,3 C 3,9 C 2,8 C 80 % 1023,5 hPa 0,0 l/m 0 min 0 min 0 W/m 16,1 km/h (3 Bft) 93,62 %
16.02.2019 07:22 4,3 C 3,9 C 2,8 C 80 % 1023,6 hPa 0,0 l/m 0 min 0 min 0 W/m 12,9 km/h (3 Bft) 93,62 %
16.02.2019 07:24 4,3 C 3,9 C 2,8 C 80 % 1023,6 hPa 0,0 l/m 0 min 0 min 0 W/m 12,9 km/h (3 Bft) 87,23 %
16.02.2019 07:26 4,3 C 3,9 C 2,8 C 80 % 1023,6 hPa 0,0 l/m 0 min 0 min 0 W/m 22,5 km/h (4 Bft) 95,74 %
16.02.2019 07:28 4,3 C 3,9 C 2,8 C 80 % 1023,6 hPa 0,0 l/m 0 min 0 min 0 W/m 16,1 km/h (3 Bft) 97,83 %
16.02.2019 07:30 4,3 C 3,9 C 2,8 C 80 % 1023,6 hPa 0,0 l/m 0 min 0 min 0 W/m 12,9 km/h (3 Bft) 97,87 %
16.02.2019 07:32 4,3 C 3,9 C 2,8 C 80 % 1023,6 hPa 0,0 l/m 0 min 0 min 0 W/m 19,3 km/h (3 Bft) 91,67 %
16.02.2019 07:34 4,3 C 3,9 C 2,8 C 80 % 1023,7 hPa 0,0 l/m 0 min 0 min 0 W/m 12,9 km/h (3 Bft) 93,62 %
16.02.2019 07:36 4,3 C 3,3 C 2,8 C 80 % 1023,6 hPa 0,0 l/m 0 min 0 min 0 W/m 12,9 km/h (3 Bft) 93,62 %
16.02.2019 07:38 4,3 C 3,9 C 2,8 C 80 % 1023,7 hPa 0,0 l/m 0 min 0 min 0 W/m 16,1 km/h (3 Bft) 95,74 %
16.02.2019 07:40 4,2 C 3,3 C 2,8 C 80 % 1023,6 hPa 0,0 l/m 0 min 0 min 0 W/m 12,9 km/h (3 Bft) 86,96 %
16.02.2019 07:42 4,2 C 3,9 C 2,8 C 80 % 1023,6 hPa 0,0 l/m 0 min 0 min 0 W/m 16,1 km/h (3 Bft) 95,74 %
16.02.2019 07:44 4,2 C 3,3 C 2,8 C 80 % 1023,7 hPa 0,0 l/m 0 min 0 min 0 W/m 16,1 km/h (3 Bft) 95,74 %
16.02.2019 07:46 4,2 C 3,3 C 2,8 C 80 % 1023,7 hPa 0,0 l/m 0 min 0 min 0 W/m 22,5 km/h (4 Bft) 95,74 %
16.02.2019 07:48 4,2 C 3,3 C 2,8 C 80 % 1023,7 hPa 0,0 l/m 0 min 0 min 5 W/m 9,7 km/h (2 Bft) 91,49 %
16.02.2019 07:50 4,2 C 3,3 C 2,8 C 80 % 1023,7 hPa 0,0 l/m 0 min 0 min 5 W/m 16,1 km/h (3 Bft) 95,74 %
16.02.2019 07:52 4,2 C 3,3 C 2,8 C 80 % 1023,7 hPa 0,0 l/m 0 min 0 min 6 W/m 16,1 km/h (3 Bft) 95,65 %
16.02.2019 07:54 4,2 C 3,3 C 2,8 C 80 % 1023,7 hPa 0,0 l/m 0 min 0 min 7 W/m 16,1 km/h (3 Bft) 95,74 %
16.02.2019 07:56 4,2 C 3,3 C 2,8 C 80 % 1023,8 hPa 0,0 l/m 0 min 0 min 7 W/m 16,1 km/h (3 Bft) 95,74 %
16.02.2019 07:58 4,2 C 3,3 C 2,8 C 80 % 1023,8 hPa 0,0 l/m 0 min 0 min 7 W/m 16,1 km/h (3 Bft) 89,36 %
16.02.2019 08:00 4,1 C 3,3 C 2,8 C 80 % 1023,9 hPa 0,0 l/m 0 min 0 min 9 W/m 12,9 km/h (3 Bft) 95,74 %
16.02.2019 08:02 4,1 C 3,3 C 2,8 C 81 % 1023,9 hPa 0,0 l/m 0 min 0 min 11 W/m 12,9 km/h (3 Bft) 95,74 %
16.02.2019 08:04 4,1 C 3,3 C 2,8 C 81 % 1023,9 hPa 0,0 l/m 0 min 0 min 11 W/m 12,9 km/h (3 Bft) 95,74 %
16.02.2019 08:06 4,1 C 3,3 C 2,8 C 81 % 1024,0 hPa 0,0 l/m 0 min 0 min 11 W/m 9,7 km/h (2 Bft) 93,62 %
16.02.2019 08:08 4,1 C 3,3 C 2,8 C 81 % 1023,9 hPa 0,0 l/m 0 min 0 min 12 W/m 19,3 km/h (3 Bft) 97,87 %
16.02.2019 08:10 4,1 C 3,3 C 2,8 C 81 % 1023,9 hPa 0,0 l/m 0 min 0 min 12 W/m 9,7 km/h (2 Bft) 95,74 %
16.02.2019 08:12 4,1 C 3,3 C 2,8 C 81 % 1023,9 hPa 0,0 l/m 0 min 0 min 13 W/m 12,9 km/h (3 Bft) 97,87 %
16.02.2019 08:14 4,0 C 3,9 C 2,8 C 81 % 1024,0 hPa 0,0 l/m 0 min 0 min 14 W/m 12,9 km/h (3 Bft) 97,83 %
16.02.2019 08:16 4,0 C 3,9 C 2,8 C 81 % 1023,9 hPa 0,0 l/m 0 min 0 min 15 W/m 16,1 km/h (3 Bft) 100,00 %
16.02.2019 08:18 4,1 C 3,9 C 2,8 C 81 % 1023,9 hPa 0,0 l/m 0 min 0 min 16 W/m 16,1 km/h (3 Bft) 97,87 %
16.02.2019 08:20 4,1 C 3,9 C 2,8 C 81 % 1024,0 hPa 0,0 l/m 0 min 0 min 16 W/m 12,9 km/h (3 Bft) 97,87 %
16.02.2019 08:22 4,1 C 3,9 C 2,8 C 81 % 1023,9 hPa 0,0 l/m 0 min 0 min 16 W/m 12,9 km/h (3 Bft) 85,11 %
16.02.2019 08:24 4,1 C 3,9 C 2,8 C 81 % 1024,0 hPa 0,0 l/m 0 min 0 min 18 W/m 22,5 km/h (4 Bft) 89,36 %
16.02.2019 08:26 4,1 C 3,9 C 2,8 C 81 % 1024,1 hPa 0,0 l/m 0 min 0 min 18 W/m 22,5 km/h (4 Bft) 93,48 %
16.02.2019 08:28 4,1 C 3,9 C 2,8 C 81 % 1024,0 hPa 0,0 l/m 0 min 0 min 19 W/m 22,5 km/h (4 Bft) 95,74 %
16.02.2019 08:30 4,1 C 3,9 C 2,8 C 81 % 1024,1 hPa 0,0 l/m 0 min 0 min 19 W/m 16,1 km/h (3 Bft) 95,74 %
16.02.2019 08:32 4,1 C 3,9 C 2,8 C 81 % 1024,2 hPa 0,0 l/m 0 min 0 min 19 W/m 16,1 km/h (3 Bft) 100,00 %
16.02.2019 08:34 4,2 C 3,9 C 3,3 C 81 % 1024,2 hPa 0,0 l/m 0 min 0 min 21 W/m 16,1 km/h (3 Bft) 100,00 %
16.02.2019 08:36 4,2 C 3,9 C 2,8 C 81 % 1024,2 hPa 0,0 l/m 0 min 0 min 21 W/m 12,9 km/h (3 Bft) 100,00 %
16.02.2019 08:38 4,2 C 3,9 C 2,8 C 81 % 1024,1 hPa 0,0 l/m 0 min 0 min 21 W/m 12,9 km/h (3 Bft) 100,00 %
16.02.2019 08:40 4,2 C 3,9 C 3,3 C 81 % 1024,1 hPa 0,0 l/m 0 min 0 min 21 W/m 25,7 km/h (4 Bft) 100,00 %
16.02.2019 08:42 4,2 C 3,9 C 3,3 C 81 % 1024,2 hPa 0,0 l/m 0 min 0 min 23 W/m 16,1 km/h (3 Bft) 100,00 %
16.02.2019 08:44 4,2 C 3,9 C 3,3 C 81 % 1024,2 hPa 0,0 l/m 0 min 0 min 23 W/m 16,1 km/h (3 Bft) 100,00 %
16.02.2019 08:46 4,2 C 3,9 C 3,3 C 81 % 1024,3 hPa 0,0 l/m 0 min 0 min 24 W/m 22,5 km/h (4 Bft) 100,00 %
16.02.2019 08:48 4,2 C 3,9 C 3,3 C 81 % 1024,3 hPa 0,0 l/m 0 min 0 min 25 W/m 12,9 km/h (3 Bft) 100,00 %
16.02.2019 08:50 4,3 C 4,4 C 3,3 C 81 % 1024,4 hPa 0,0 l/m 0 min 0 min 25 W/m 22,5 km/h (4 Bft) 100,00 %
16.02.2019 08:52 4,3 C 4,4 C 3,3 C 81 % 1024,3 hPa 0,0 l/m 0 min 0 min 25 W/m 12,9 km/h (3 Bft) 100,00 %
16.02.2019 08:54 4,3 C 4,4 C 3,3 C 81 % 1024,3 hPa 0,0 l/m 0 min 0 min 26 W/m 19,3 km/h (3 Bft) 100,00 %
16.02.2019 08:56 4,3 C 4,4 C 3,3 C 81 % 1024,3 hPa 0,0 l/m 0 min 0 min 26 W/m 16,1 km/h (3 Bft) 100,00 %
16.02.2019 08:58 4,4 C 4,4 C 3,3 C 81 % 1024,2 hPa 0,0 l/m 0 min 0 min 26 W/m 12,9 km/h (3 Bft) 100,00 %
16.02.2019 09:00 4,4 C 4,4 C 3,3 C 81 % 1024,2 hPa 0,0 l/m 0 min 0 min 26 W/m 12,9 km/h (3 Bft) 100,00 %
16.02.2019 09:02 4,4 C 4,4 C 3,3 C 81 % 1024,2 hPa 0,0 l/m 0 min 0 min 28 W/m 16,1 km/h (3 Bft) 100,00 %
16.02.2019 09:04 4,5 C 4,4 C 3,3 C 81 % 1024,1 hPa 0,0 l/m 0 min 0 min 28 W/m 16,1 km/h (3 Bft) 100,00 %
16.02.2019 09:06 4,6 C 4,4 C 3,3 C 81 % 1024,2 hPa 0,0 l/m 0 min 0 min 28 W/m 16,1 km/h (3 Bft) 97,87 %
16.02.2019 09:08 4,6 C 4,4 C 3,9 C 81 % 1024,2 hPa 0,0 l/m 0 min 0 min 28 W/m 16,1 km/h (3 Bft) 100,00 %
16.02.2019 09:10 4,6 C 4,4 C 3,9 C 81 % 1024,3 hPa 0,0 l/m 0 min 0 min 29 W/m 12,9 km/h (3 Bft) 100,00 %
16.02.2019 09:12 4,7 C 4,4 C 3,9 C 81 % 1024,3 hPa 0,0 l/m 0 min 0 min 30 W/m 12,9 km/h (3 Bft) 95,74 %
16.02.2019 09:14 4,7 C 5,0 C 3,9 C 80 % 1024,3 hPa 0,0 l/m 0 min 0 min 30 W/m 16,1 km/h (3 Bft) 95,74 %
16.02.2019 09:16 4,7 C 5,0 C 3,9 C 80 % 1024,3 hPa 0,0 l/m 0 min 0 min 32 W/m 19,3 km/h (3 Bft) 97,83 %
16.02.2019 09:18 4,8 C 5,0 C 3,9 C 81 % 1024,3 hPa 0,0 l/m 0 min 0 min 32 W/m 22,5 km/h (4 Bft) 100,00 %
16.02.2019 09:20 4,8 C 5,0 C 3,9 C 80 % 1024,3 hPa 0,0 l/m 0 min 0 min 32 W/m 25,7 km/h (4 Bft) 97,87 %
16.02.2019 09:22 4,9 C 5,0 C 3,9 C 80 % 1024,3 hPa 0,0 l/m 0 min 0 min 33 W/m 19,3 km/h (3 Bft) 95,74 %
16.02.2019 09:24 4,9 C 5,0 C 3,9 C 80 % 1024,3 hPa 0,0 l/m 0 min 0 min 33 W/m 19,3 km/h (3 Bft) 93,62 %
16.02.2019 09:26 5,0 C 5,6 C 4,4 C 80 % 1024,3 hPa 0,0 l/m 0 min 0 min 91 W/m 19,3 km/h (3 Bft) 95,74 %
16.02.2019 09:28 5,1 C 7,8 C 4,4 C 80 % 1024,3 hPa 0,0 l/m 2 min 0 min 213 W/m 19,3 km/h (3 Bft) 95,65 %
16.02.2019 09:30 5,1 C 8,9 C 4,4 C 80 % 1024,3 hPa 0,0 l/m 2 min 0 min 222 W/m 9,7 km/h (2 Bft) 97,87 %
16.02.2019 09:32 5,2 C 8,3 C 4,4 C 80 % 1024,3 hPa 0,0 l/m 2 min 0 min 227 W/m 19,3 km/h (3 Bft) 97,87 %
16.02.2019 09:34 5,3 C 8,9 C 4,4 C 80 % 1024,3 hPa 0,0 l/m 2 min 0 min 230 W/m 19,3 km/h (3 Bft) 93,62 %
16.02.2019 09:36 5,4 C 9,4 C 4,4 C 79 % 1024,4 hPa 0,0 l/m 2 min 0 min 237 W/m 25,7 km/h (4 Bft) 97,87 %
16.02.2019 09:38 5,6 C 9,4 C 4,4 C 79 % 1024,4 hPa 0,0 l/m 2 min 0 min 242 W/m 29,0 km/h (5 Bft) 97,87 %
16.02.2019 09:40 5,7 C 9,4 C 5,0 C 79 % 1024,3 hPa 0,0 l/m 2 min 0 min 248 W/m 12,9 km/h (3 Bft) 97,83 %
16.02.2019 09:42 5,9 C 10,6 C 5,0 C 78 % 1024,4 hPa 0,0 l/m 2 min 0 min 252 W/m 16,1 km/h (3 Bft) 97,87 %
16.02.2019 09:44 6,0 C 10,6 C 5,6 C 78 % 1024,3 hPa 0,0 l/m 2 min 0 min 256 W/m 12,9 km/h (3 Bft) 97,87 %
16.02.2019 09:46 6,2 C 10,0 C 5,6 C 78 % 1024,3 hPa 0,0 l/m 2 min 0 min 261 W/m 22,5 km/h (4 Bft) 95,74 %
16.02.2019 09:48 6,3 C 10,0 C 5,6 C 78 % 1024,3 hPa 0,0 l/m 2 min 0 min 267 W/m 22,5 km/h (4 Bft) 97,87 %
16.02.2019 09:50 6,4 C 10,6 C 6,7 C 77 % 1024,3 hPa 0,0 l/m 2 min 0 min 272 W/m 12,9 km/h (3 Bft) 95,65 %
16.02.2019 09:52 6,6 C 11,1 C 7,8 C 76 % 1024,2 hPa 0,0 l/m 2 min 0 min 276 W/m 22,5 km/h (4 Bft) 93,62 %
16.02.2019 09:54 6,7 C 10,6 C 8,9 C 76 % 1024,2 hPa 0,0 l/m 2 min 0 min 280 W/m 22,5 km/h (4 Bft) 97,87 %
16.02.2019 09:56 6,8 C 10,6 C 9,4 C 75 % 1024,2 hPa 0,0 l/m 2 min 0 min 285 W/m 19,3 km/h (3 Bft) 97,14 %
16.02.2019 09:58 6,9 C 10,6 C 10,0 C 75 % 1024,3 hPa 0,0 l/m 2 min 0 min 290 W/m 16,1 km/h (3 Bft) 100,00 %
16.02.2019 10:00 7,1 C 11,1 C 10,0 C 75 % 1024,3 hPa 0,0 l/m 2 min 0 min 294 W/m 16,1 km/h (3 Bft) 100,00 %
16.02.2019 10:02 7,2 C 11,1 C 10,6 C 74 % 1024,2 hPa 0,0 l/m 2 min 0 min 299 W/m 19,3 km/h (3 Bft) 98,11 %
16.02.2019 10:04 7,3 C 11,1 C 10,0 C 74 % 1024,2 hPa 0,0 l/m 2 min 0 min 304 W/m 16,1 km/h (3 Bft) 97,87 %
16.02.2019 10:06 7,4 C 11,7 C 8,9 C 73 % 1024,1 hPa 0,0 l/m 2 min 0 min 308 W/m 16,1 km/h (3 Bft) 100,00 %
16.02.2019 10:08 7,5 C 12,2 C 8,3 C 73 % 1024,1 hPa 0,0 l/m 2 min 0 min 313 W/m 16,1 km/h (3 Bft) 97,14 %
16.02.2019 10:10 7,6 C 12,8 C 7,8 C 73 % 1024,1 hPa 0,0 l/m 2 min 0 min 318 W/m 9,7 km/h (2 Bft) 97,87 %
16.02.2019 10:12 7,7 C 12,2 C 7,2 C 73 % 1024,1 hPa 0,0 l/m 2 min 0 min 322 W/m 12,9 km/h (3 Bft) 93,48 %
16.02.2019 10:14 7,8 C 12,2 C 7,2 C 73 % 1024,1 hPa 0,0 l/m 2 min 0 min 325 W/m 12,9 km/h (3 Bft) 97,87 %
16.02.2019 10:16 7,9 C 11,7 C 7,2 C 73 % 1024,2 hPa 0,0 l/m 2 min 0 min 329 W/m 12,9 km/h (3 Bft) 97,92 %
16.02.2019 10:18 8,0 C 12,8 C 7,2 C 72 % 1024,1 hPa 0,0 l/m 2 min 0 min 334 W/m 9,7 km/h (2 Bft) 100,00 %
16.02.2019 10:20 8,1 C 12,8 C 7,2 C 72 % 1024,1 hPa 0,0 l/m 2 min 0 min 339 W/m 22,5 km/h (4 Bft) 95,74 %
16.02.2019 10:22 8,2 C 12,8 C 7,2 C 72 % 1024,1 hPa 0,0 l/m 2 min 0 min 342 W/m 16,1 km/h (3 Bft) 91,49 %
16.02.2019 10:24 8,3 C 12,8 C 7,2 C 72 % 1024,1 hPa 0,0 l/m 2 min 0 min 347 W/m 12,9 km/h (3 Bft) 95,65 %
16.02.2019 10:26 8,4 C 12,8 C 7,2 C 72 % 1024,0 hPa 0,0 l/m 2 min 0 min 350 W/m 12,9 km/h (3 Bft) 97,87 %
16.02.2019 10:28 8,6 C 12,8 C 7,8 C 71 % 1024,0 hPa 0,0 l/m 2 min 0 min 353 W/m 12,9 km/h (3 Bft) 95,74 %
16.02.2019 10:30 8,7 C 12,8 C 7,8 C 71 % 1024,0 hPa 0,0 l/m 2 min 0 min 358 W/m 16,1 km/h (3 Bft) 93,62 %
16.02.2019 10:32 8,7 C 13,3 C 7,8 C 70 % 1024,1 hPa 0,0 l/m 2 min 0 min 357 W/m 12,9 km/h (3 Bft) 93,75 %
16.02.2019 10:34 8,8 C 13,9 C 7,8 C 70 % 1024,1 hPa 0,0 l/m 2 min 0 min 364 W/m 16,1 km/h (3 Bft) 97,83 %
16.02.2019 10:36 8,9 C 13,3 C 7,8 C 70 % 1024,1 hPa 0,0 l/m 2 min 0 min 366 W/m 16,1 km/h (3 Bft) 95,74 %
16.02.2019 10:38 9,0 C 13,9 C 7,8 C 69 % 1024,1 hPa 0,0 l/m 2 min 0 min 372 W/m 9,7 km/h (2 Bft) 95,74 %
16.02.2019 10:40 9,1 C 14,4 C 7,8 C 70 % 1024,1 hPa 0,0 l/m 2 min 0 min 374 W/m 16,1 km/h (3 Bft) 95,74 %
16.02.2019 10:42 9,2 C 13,9 C 7,8 C 69 % 1024,1 hPa 0,0 l/m 2 min 0 min 377 W/m 16,1 km/h (3 Bft) 95,74 %
16.02.2019 10:44 9,3 C 14,4 C 7,8 C 69 % 1024,2 hPa 0,0 l/m 2 min 0 min 383 W/m 9,7 km/h (2 Bft) 93,62 %
16.02.2019 10:46 9,3 C 14,4 C 7,8 C 69 % 1024,2 hPa 0,0 l/m 2 min 0 min 387 W/m 12,9 km/h (3 Bft) 95,74 %
16.02.2019 10:48 9,4 C 14,4 C 7,8 C 69 % 1024,2 hPa 0,0 l/m 2 min 0 min 389 W/m 9,7 km/h (2 Bft) 95,74 %
16.02.2019 10:50 9,5 C 13,9 C 7,8 C 69 % 1024,1 hPa 0,0 l/m 2 min 0 min 392 W/m 16,1 km/h (3 Bft) 95,74 %
16.02.2019 10:52 9,6 C 15,0 C 8,3 C 69 % 1024,2 hPa 0,0 l/m 2 min 0 min 395 W/m 9,7 km/h (2 Bft) 91,49 %
16.02.2019 10:54 9,7 C 15,6 C 8,3 C 69 % 1024,3 hPa 0,0 l/m 2 min 0 min 399 W/m 9,7 km/h (2 Bft) 93,62 %
16.02.2019 10:56 9,8 C 15,0 C 8,3 C 68 % 1024,4 hPa 0,0 l/m 2 min 0 min 403 W/m 12,9 km/h (3 Bft) 95,74 %
16.02.2019 10:58 9,9 C 15,6 C 8,3 C 68 % 1024,4 hPa 0,0 l/m 2 min 0 min 404 W/m 16,1 km/h (3 Bft) 95,65 %
16.02.2019 11:00 10,0 C 15,0 C 8,9 C 67 % 1024,4 hPa 0,0 l/m 2 min 0 min 410 W/m 12,9 km/h (3 Bft) 95,74 %
16.02.2019 11:02 10,1 C 15,0 C 8,9 C 67 % 1024,4 hPa 0,0 l/m 2 min 0 min 413 W/m 12,9 km/h (3 Bft) 95,74 %
16.02.2019 11:04 10,2 C 14,4 C 8,9 C 66 % 1024,4 hPa 0,0 l/m 2 min 0 min 416 W/m 16,1 km/h (3 Bft) 93,62 %
16.02.2019 11:06 10,2 C 15,0 C 8,9 C 66 % 1024,3 hPa 0,0 l/m 2 min 0 min 418 W/m 12,9 km/h (3 Bft) 95,74 %
16.02.2019 11:08 10,3 C 15,0 C 8,9 C 66 % 1024,3 hPa 0,0 l/m 2 min 0 min 421 W/m 9,7 km/h (2 Bft) 95,74 %
16.02.2019 11:10 10,3 C 14,4 C 8,9 C 66 % 1024,4 hPa 0,0 l/m 2 min 0 min 423 W/m 9,7 km/h (2 Bft) 97,83 %
16.02.2019 11:12 10,4 C 15,0 C 8,9 C 66 % 1024,4 hPa 0,0 l/m 2 min 0 min 425 W/m 12,9 km/h (3 Bft) 97,87 %
16.02.2019 11:14 10,5 C 13,9 C 8,9 C 66 % 1024,4 hPa 0,0 l/m 2 min 0 min 415 W/m 12,9 km/h (3 Bft) 91,49 %
16.02.2019 11:16 10,6 C 13,9 C 8,9 C 66 % 1024,4 hPa 0,0 l/m 2 min 0 min 416 W/m 9,7 km/h (2 Bft) 95,83 %
16.02.2019 11:18 10,6 C 13,9 C 8,9 C 66 % 1024,4 hPa 0,0 l/m 2 min 0 min 434 W/m 9,7 km/h (2 Bft) 95,74 %
16.02.2019 11:20 10,7 C 15,0 C 9,4 C 66 % 1024,4 hPa 0,0 l/m 2 min 0 min 437 W/m 12,9 km/h (3 Bft) 97,87 %
16.02.2019 11:22 10,7 C 16,1 C 9,4 C 67 % 1024,4 hPa 0,0 l/m 2 min 0 min 439 W/m 9,7 km/h (2 Bft) 93,48 %
16.02.2019 11:24 10,8 C 16,1 C 9,4 C 66 % 1024,3 hPa 0,0 l/m 2 min 0 min 442 W/m 19,3 km/h (3 Bft) 95,74 %
16.02.2019 11:26 10,9 C 16,1 C 9,4 C 66 % 1024,3 hPa 0,0 l/m 2 min 0 min 444 W/m 12,9 km/h (3 Bft) 97,87 %
16.02.2019 11:28 10,9 C 15,6 C 9,4 C 65 % 1024,4 hPa 0,0 l/m 2 min 0 min 447 W/m 16,1 km/h (3 Bft) 95,74 %
16.02.2019 11:30 11,0 C 16,1 C 9,4 C 65 % 1024,4 hPa 0,0 l/m 2 min 0 min 449 W/m 12,9 km/h (3 Bft) 100,00 %
16.02.2019 11:32 11,1 C 16,1 C 9,4 C 65 % 1024,4 hPa 0,0 l/m 2 min 0 min 451 W/m 12,9 km/h (3 Bft) 95,74 %
16.02.2019 11:34 11,1 C 16,7 C 10,0 C 65 % 1024,4 hPa 0,0 l/m 2 min 0 min 453 W/m 9,7 km/h (2 Bft) 93,62 %
16.02.2019 11:36 11,2 C 16,1 C 10,0 C 65 % 1024,4 hPa 0,0 l/m 2 min 0 min 455 W/m 12,9 km/h (3 Bft) 95,74 %
16.02.2019 11:38 11,3 C 16,7 C 10,0 C 65 % 1024,4 hPa 0,0 l/m 2 min 0 min 455 W/m 12,9 km/h (3 Bft) 95,74 %
16.02.2019 11:40 11,4 C 16,1 C 10,0 C 65 % 1024,3 hPa 0,0 l/m 2 min 0 min 460 W/m 12,9 km/h (3 Bft) 95,74 %
16.02.2019 11:42 11,5 C 17,2 C 10,0 C 65 % 1024,3 hPa 0,0 l/m 2 min 0 min 461 W/m 9,7 km/h (2 Bft) 95,74 %
16.02.2019 11:44 11,6 C 17,2 C 10,0 C 65 % 1024,3 hPa 0,0 l/m 2 min 0 min 464 W/m 12,9 km/h (3 Bft) 95,65 %
16.02.2019 11:46 11,6 C 17,2 C 10,0 C 65 % 1024,2 hPa 0,0 l/m 2 min 0 min 467 W/m 16,1 km/h (3 Bft) 93,62 %
16.02.2019 11:48 11,7 C 16,7 C 10,0 C 65 % 1024,2 hPa 0,0 l/m 2 min 0 min 469 W/m 16,1 km/h (3 Bft) 95,74 %
16.02.2019 11:50 11,8 C 16,7 C 10,0 C 65 % 1024,2 hPa 0,0 l/m 2 min 0 min 471 W/m 16,1 km/h (3 Bft) 95,74 %
16.02.2019 11:52 11,9 C 17,2 C 10,6 C 64 % 1024,2 hPa 0,0 l/m 2 min 0 min 474 W/m 12,9 km/h (3 Bft) 93,62 %
16.02.2019 11:54 11,9 C 17,2 C 10,6 C 64 % 1024,3 hPa 0,0 l/m 2 min 0 min 476 W/m 9,7 km/h (2 Bft) 93,62 %
16.02.2019 11:56 12,0 C 16,7 C 10,6 C 64 % 1024,1 hPa 0,0 l/m 2 min 0 min 480 W/m 12,9 km/h (3 Bft) 95,65 %
16.02.2019 11:58 12,1 C 17,2 C 11,1 C 64 % 1024,1 hPa 0,0 l/m 2 min 0 min 481 W/m 16,1 km/h (3 Bft) 95,74 %
16.02.2019 12:00 12,2 C 17,2 C 11,7 C 63 % 1024,1 hPa 0,0 l/m 2 min 0 min 484 W/m 16,1 km/h (3 Bft) 97,87 %
16.02.2019 12:02 12,3 C 17,2 C 11,1 C 63 % 1024,1 hPa 0,0 l/m 2 min 0 min 485 W/m 16,1 km/h (3 Bft) 93,62 %
16.02.2019 12:04 12,4 C 16,7 C 11,1 C 63 % 1024,1 hPa 0,0 l/m 2 min 0 min 476 W/m 16,1 km/h (3 Bft) 82,98 %
16.02.2019 12:07 12,5 C 17,2 C 11,1 C 63 % 1024,1 hPa 0,0 l/m 3 min 0 min 474 W/m 16,1 km/h (3 Bft) 81,43 %
16.02.2019 12:08 12,5 C 17,8 C 11,1 C 63 % 1024,1 hPa 0,0 l/m 1 min 0 min 490 W/m 12,9 km/h (3 Bft) 66,67 %
16.02.2019 12:10 12,6 C 17,8 C 11,1 C 62 % 1024,1 hPa 0,0 l/m 2 min 0 min 492 W/m 12,9 km/h (3 Bft) 76,60 %
16.02.2019 12:12 12,7 C 17,8 C 11,7 C 62 % 1024,0 hPa 0,0 l/m 2 min 0 min 492 W/m 16,1 km/h (3 Bft) 67,39 %
16.02.2019 12:14 12,7 C 18,9 C 11,7 C 62 % 1024,0 hPa 0,0 l/m 2 min 0 min 492 W/m 9,7 km/h (2 Bft) 89,36 %
16.02.2019 12:16 12,8 C 19,4 C 11,7 C 62 % 1024,0 hPa 0,0 l/m 2 min 0 min 492 W/m 9,7 km/h (2 Bft) 97,87 %
16.02.2019 12:18 12,9 C 20,0 C 11,7 C 62 % 1024,0 hPa 0,0 l/m 2 min 0 min 491 W/m 9,7 km/h (2 Bft) 95,74 %
16.02.2019 12:20 13,0 C 19,4 C 11,7 C 62 % 1024,0 hPa 0,0 l/m 2 min 0 min 494 W/m 12,9 km/h (3 Bft) 97,87 %
16.02.2019 12:22 13,1 C 18,9 C 11,7 C 61 % 1024,0 hPa 0,0 l/m 2 min 0 min 497 W/m 12,9 km/h (3 Bft) 97,83 %
16.02.2019 12:24 13,2 C 19,4 C 12,2 C 62 % 1024,0 hPa 0,0 l/m 2 min 0 min 498 W/m 6,4 km/h (2 Bft) 95,74 %
16.02.2019 12:26 13,3 C 19,4 C 12,2 C 61 % 1024,0 hPa 0,0 l/m 2 min 0 min 499 W/m 9,7 km/h (2 Bft) 100,00 %
16.02.2019 12:28 13,4 C 18,9 C 12,2 C 60 % 1023,9 hPa 0,0 l/m 2 min 0 min 499 W/m 12,9 km/h (3 Bft) 87,23 %
16.02.2019 12:30 13,4 C 20,0 C 12,8 C 59 % 1024,0 hPa 0,0 l/m 2 min 0 min 502 W/m 12,9 km/h (3 Bft) 93,62 %
16.02.2019 12:32 13,6 C 20,0 C 12,8 C 59 % 1024,0 hPa 0,0 l/m 2 min 0 min 503 W/m 9,7 km/h (2 Bft) 95,74 %
16.02.2019 12:34 13,7 C 20,0 C 13,9 C 59 % 1024,0 hPa 0,0 l/m 2 min 0 min 504 W/m 16,1 km/h (3 Bft) 97,83 %
16.02.2019 12:36 13,8 C 20,0 C 16,1 C 59 % 1024,0 hPa 0,0 l/m 2 min 0 min 503 W/m 16,1 km/h (3 Bft) 95,74 %
16.02.2019 12:38 13,9 C 20,0 C 18,3 C 58 % 1023,9 hPa 0,0 l/m 2 min 0 min 501 W/m 12,9 km/h (3 Bft) 91,49 %
16.02.2019 12:40 14,1 C 20,0 C 19,4 C 58 % 1023,9 hPa 0,0 l/m 2 min 0 min 504 W/m 16,1 km/h (3 Bft) 95,74 %
16.02.2019 12:42 14,2 C 19,4 C 20,6 C 58 % 1023,9 hPa 0,0 l/m 2 min 0 min 505 W/m 16,1 km/h (3 Bft) 91,49 %
16.02.2019 12:44 14,2 C 18,3 C 19,4 C 57 % 1023,9 hPa 0,0 l/m 2 min 0 min 505 W/m 16,1 km/h (3 Bft) 93,62 %
16.02.2019 12:46 14,2 C 18,9 C 20,6 C 57 % 1023,9 hPa 0,0 l/m 2 min 0 min 499 W/m 12,9 km/h (3 Bft) 91,30 %
16.02.2019 12:48 14,3 C 19,4 C 20,0 C 57 % 1024,0 hPa 0,0 l/m 2 min 0 min 500 W/m 12,9 km/h (3 Bft) 95,74 %
16.02.2019 12:50 14,4 C 19,4 C 20,6 C 57 % 1024,0 hPa 0,0 l/m 2 min 0 min 500 W/m 12,9 km/h (3 Bft) 95,74 %
16.02.2019 12:52 14,4 C 18,9 C 20,6 C 57 % 1024,0 hPa 0,0 l/m 2 min 0 min 499 W/m 12,9 km/h (3 Bft) 89,36 %
16.02.2019 12:54 14,5 C 20,0 C 21,1 C 58 % 1024,0 hPa 0,0 l/m 2 min 0 min 494 W/m 6,4 km/h (2 Bft) 85,11 %
16.02.2019 12:56 14,5 C 19,4 C 20,0 C 57 % 1024,0 hPa 0,0 l/m 2 min 0 min 491 W/m 16,1 km/h (3 Bft) 89,36 %
16.02.2019 12:58 14,6 C 20,0 C 20,6 C 57 % 1023,9 hPa 0,0 l/m 2 min 0 min 492 W/m 9,7 km/h (2 Bft) 97,83 %
16.02.2019 13:00 14,6 C 21,1 C 20,6 C 57 % 1023,9 hPa 0,0 l/m 2 min 0 min 494 W/m 9,7 km/h (2 Bft) 95,74 %
16.02.2019 13:02 14,7 C 21,1 C 19,4 C 57 % 1023,9 hPa 0,0 l/m 2 min 0 min 497 W/m 9,7 km/h (2 Bft) 100,00 %
16.02.2019 13:04 14,8 C 20,6 C 20,6 C 57 % 1024,0 hPa 0,0 l/m 2 min 0 min 499 W/m 12,9 km/h (3 Bft) 93,62 %
16.02.2019 13:06 14,8 C 20,6 C 20,0 C 57 % 1023,8 hPa 0,0 l/m 2 min 0 min 497 W/m 9,7 km/h (2 Bft) 93,22 %
16.02.2019 13:08 14,8 C 20,6 C 18,3 C 56 % 1023,9 hPa 0,0 l/m 2 min 0 min 496 W/m 12,9 km/h (3 Bft) 97,14 %
16.02.2019 13:10 14,9 C 20,0 C 17,8 C 56 % 1023,8 hPa 0,0 l/m 2 min 0 min 491 W/m 9,7 km/h (2 Bft) 80,85 %
16.02.2019 13:12 15,0 C 20,6 C 17,8 C 57 % 1023,8 hPa 0,0 l/m 2 min 0 min 483 W/m 9,7 km/h (2 Bft) 73,91 %
16.02.2019 13:14 15,1 C 20,6 C 17,2 C 57 % 1023,9 hPa 0,0 l/m 2 min 0 min 483 W/m 9,7 km/h (2 Bft) 87,23 %
16.02.2019 13:16 15,1 C 20,6 C 17,8 C 56 % 1023,8 hPa 0,0 l/m 2 min 0 min 485 W/m 12,9 km/h (3 Bft) 91,49 %
16.02.2019 13:18 15,2 C 20,6 C 18,3 C 56 % 1023,8 hPa 0,0 l/m 2 min 0 min 483 W/m 9,7 km/h (2 Bft) 93,62 %
16.02.2019 13:20 15,2 C 20,0 C 17,8 C 55 % 1023,8 hPa 0,0 l/m 2 min 0 min 485 W/m 9,7 km/h (2 Bft) 95,74 %
16.02.2019 13:22 15,2 C 20,0 C 17,2 C 55 % 1023,7 hPa 0,0 l/m 2 min 0 min 487 W/m 12,9 km/h (3 Bft) 95,74 %
16.02.2019 13:24 15,3 C 21,7 C 16,7 C 55 % 1023,7 hPa 0,0 l/m 2 min 0 min 486 W/m 6,4 km/h (2 Bft) 93,62 %
16.02.2019 13:26 15,4 C 22,2 C 16,1 C 56 % 1023,7 hPa 0,0 l/m 2 min 0 min 486 W/m 6,4 km/h (2 Bft) 91,30 %
16.02.2019 13:28 15,4 C 22,2 C 16,7 C 55 % 1023,6 hPa 0,0 l/m 2 min 0 min 485 W/m 12,9 km/h (3 Bft) 95,74 %
16.02.2019 13:30 15,5 C 20,6 C 15,0 C 54 % 1023,6 hPa 0,0 l/m 2 min 0 min 483 W/m 9,7 km/h (2 Bft) 93,62 %
16.02.2019 13:32 15,6 C 21,1 C 15,0 C 55 % 1023,6 hPa 0,0 l/m 2 min 0 min 483 W/m 9,7 km/h (2 Bft) 93,62 %
16.02.2019 13:34 15,7 C 21,1 C 15,0 C 54 % 1023,5 hPa 0,0 l/m 2 min 0 min 483 W/m 9,7 km/h (2 Bft) 89,36 %
16.02.2019 13:36 15,7 C 21,1 C 15,0 C 54 % 1023,6 hPa 0,0 l/m 2 min 0 min 484 W/m 12,9 km/h (3 Bft) 93,10 %
16.02.2019 13:38 15,8 C 21,1 C 14,4 C 54 % 1023,6 hPa 0,0 l/m 2 min 0 min 483 W/m 12,9 km/h (3 Bft) 92,86 %
16.02.2019 13:40 15,8 C 21,7 C 14,4 C 54 % 1023,5 hPa 0,0 l/m 2 min 0 min 485 W/m 9,7 km/h (2 Bft) 95,74 %
16.02.2019 13:42 15,9 C 22,2 C 14,4 C 54 % 1023,5 hPa 0,0 l/m 2 min 0 min 484 W/m 12,9 km/h (3 Bft) 84,78 %
16.02.2019 13:44 15,9 C 21,7 C 14,4 C 54 % 1023,7 hPa 0,0 l/m 2 min 0 min 482 W/m 12,9 km/h (3 Bft) 91,49 %
16.02.2019 13:46 16,0 C 20,6 C 14,4 C 54 % 1023,6 hPa 0,0 l/m 2 min 0 min 482 W/m 16,1 km/h (3 Bft) 87,23 %
16.02.2019 13:48 16,1 C 20,6 C 14,4 C 53 % 1023,6 hPa 0,0 l/m 2 min 0 min 480 W/m 16,1 km/h (3 Bft) 95,74 %
16.02.2019 13:50 16,1 C 20,0 C 13,9 C 53 % 1023,6 hPa 0,0 l/m 2 min 0 min 478 W/m 12,9 km/h (3 Bft) 91,49 %
16.02.2019 13:52 16,1 C 20,6 C 13,9 C 52 % 1023,5 hPa 0,0 l/m 2 min 0 min 475 W/m 12,9 km/h (3 Bft) 95,74 %
16.02.2019 13:54 16,1 C 20,6 C 14,4 C 52 % 1023,5 hPa 0,0 l/m 2 min 0 min 473 W/m 12,9 km/h (3 Bft) 97,83 %
16.02.2019 13:56 16,1 C 21,7 C 14,4 C 52 % 1023,5 hPa 0,0 l/m 2 min 0 min 469 W/m 9,7 km/h (2 Bft) 93,62 %
16.02.2019 13:58 16,2 C 21,7 C 14,4 C 53 % 1023,5 hPa 0,0 l/m 2 min 0 min 469 W/m 12,9 km/h (3 Bft) 93,62 %
16.02.2019 14:00 16,2 C 21,1 C 14,4 C 52 % 1023,5 hPa 0,0 l/m 2 min 0 min 466 W/m 19,3 km/h (3 Bft) 93,62 %
16.02.2019 14:02 16,2 C 20,6 C 14,4 C 52 % 1023,5 hPa 0,0 l/m 2 min 0 min 459 W/m 19,3 km/h (3 Bft) 93,75 %
16.02.2019 14:04 16,2 C 20,0 C 14,4 C 52 % 1023,5 hPa 0,0 l/m 2 min 0 min 437 W/m 19,3 km/h (3 Bft) 97,87 %
16.02.2019 14:06 16,2 C 19,4 C 14,4 C 52 % 1023,5 hPa 0,0 l/m 2 min 0 min 423 W/m 16,1 km/h (3 Bft) 95,65 %
16.02.2019 14:08 16,2 C 19,4 C 14,4 C 52 % 1023,5 hPa 0,0 l/m 2 min 0 min 436 W/m 19,3 km/h (3 Bft) 97,87 %
16.02.2019 14:10 16,1 C 18,9 C 14,4 C 52 % 1023,4 hPa 0,0 l/m 2 min 0 min 437 W/m 19,3 km/h (3 Bft) 97,87 %
16.02.2019 14:12 16,1 C 19,4 C 14,4 C 52 % 1023,4 hPa 0,0 l/m 2 min 0 min 438 W/m 16,1 km/h (3 Bft) 95,74 %
16.02.2019 14:14 16,1 C 20,0 C 14,4 C 52 % 1023,4 hPa 0,0 l/m 2 min 0 min 430 W/m 9,7 km/h (2 Bft) 97,87 %
16.02.2019 14:16 16,1 C 20,0 C 14,4 C 52 % 1023,3 hPa 0,0 l/m 2 min 0 min 427 W/m 19,3 km/h (3 Bft) 97,87 %
16.02.2019 14:18 16,1 C 20,6 C 14,4 C 52 % 1023,3 hPa 0,0 l/m 2 min 0 min 426 W/m 12,9 km/h (3 Bft) 97,83 %
16.02.2019 14:20 16,1 C 21,1 C 14,4 C 53 % 1023,3 hPa 0,0 l/m 2 min 0 min 423 W/m 9,7 km/h (2 Bft) 97,87 %
16.02.2019 14:22 16,1 C 21,1 C 15,0 C 52 % 1023,4 hPa 0,0 l/m 2 min 0 min 418 W/m 9,7 km/h (2 Bft) 97,87 %
16.02.2019 14:24 16,1 C 21,1 C 15,0 C 52 % 1023,4 hPa 0,0 l/m 2 min 0 min 415 W/m 9,7 km/h (2 Bft) 97,87 %
16.02.2019 14:26 16,2 C 21,1 C 15,0 C 53 % 1023,4 hPa 0,0 l/m 2 min 0 min 401 W/m 9,7 km/h (2 Bft) 95,74 %
16.02.2019 14:28 16,2 C 21,7 C 15,0 C 53 % 1023,4 hPa 0,0 l/m 2 min 0 min 375 W/m 9,7 km/h (2 Bft) 95,65 %
16.02.2019 14:30 16,2 C 21,1 C 15,0 C 53 % 1023,4 hPa 0,0 l/m 2 min 0 min 391 W/m 9,7 km/h (2 Bft) 93,62 %
16.02.2019 14:32 16,2 C 19,4 C 15,0 C 51 % 1023,4 hPa 0,0 l/m 2 min 0 min 394 W/m 22,5 km/h (4 Bft) 97,92 %
16.02.2019 14:34 16,3 C 20,0 C 15,0 C 51 % 1023,4 hPa 0,0 l/m 2 min 0 min 384 W/m 9,7 km/h (2 Bft) 97,87 %
16.02.2019 14:36 16,3 C 20,6 C 15,6 C 52 % 1023,4 hPa 0,0 l/m 2 min 0 min 382 W/m 12,9 km/h (3 Bft) 100,00 %
16.02.2019 14:38 16,3 C 20,0 C 15,0 C 51 % 1023,3 hPa 0,0 l/m 2 min 0 min 382 W/m 16,1 km/h (3 Bft) 100,00 %
16.02.2019 14:40 16,3 C 21,1 C 15,0 C 51 % 1023,3 hPa 0,0 l/m 2 min 0 min 388 W/m 12,9 km/h (3 Bft) 100,00 %
16.02.2019 14:42 16,3 C 20,6 C 14,4 C 52 % 1023,4 hPa 0,0 l/m 2 min 0 min 386 W/m 9,7 km/h (2 Bft) 95,74 %
16.02.2019 14:44 16,3 C 20,0 C 14,4 C 51 % 1023,3 hPa 0,0 l/m 2 min 0 min 387 W/m 12,9 km/h (3 Bft) 97,87 %
16.02.2019 14:46 16,3 C 20,6 C 14,4 C 52 % 1023,4 hPa 0,0 l/m 2 min 0 min 380 W/m 6,4 km/h (2 Bft) 100,00 %
16.02.2019 14:48 16,3 C 21,1 C 14,4 C 51 % 1023,4 hPa 0,0 l/m 2 min 0 min 374 W/m 6,4 km/h (2 Bft) 100,00 %
16.02.2019 14:50 16,4 C 21,1 C 14,4 C 51 % 1023,3 hPa 0,0 l/m 2 min 0 min 374 W/m 9,7 km/h (2 Bft) 97,87 %
16.02.2019 14:52 16,4 C 21,1 C 14,4 C 53 % 1023,3 hPa 0,0 l/m 2 min 0 min 373 W/m 9,7 km/h (2 Bft) 100,00 %
16.02.2019 14:54 16,4 C 21,7 C 14,4 C 53 % 1023,3 hPa 0,0 l/m 2 min 0 min 367 W/m 6,4 km/h (2 Bft) 100,00 %
16.02.2019 14:56 16,4 C 20,0 C 14,4 C 51 % 1023,3 hPa 0,0 l/m 2 min 0 min 362 W/m 19,3 km/h (3 Bft) 97,87 %
16.02.2019 14:58 16,4 C 20,0 C 14,4 C 51 % 1023,3 hPa 0,0 l/m 2 min 0 min 361 W/m 12,9 km/h (3 Bft) 100,00 %
16.02.2019 15:00 16,4 C 20,0 C 14,4 C 52 % 1023,3 hPa 0,0 l/m 2 min 0 min 357 W/m 6,4 km/h (2 Bft) 100,00 %
16.02.2019 15:02 16,4 C 20,0 C 14,4 C 51 % 1023,3 hPa 0,0 l/m 2 min 0 min 353 W/m 9,7 km/h (2 Bft) 100,00 %
16.02.2019 15:04 16,4 C 20,0 C 13,9 C 51 % 1023,2 hPa 0,0 l/m 2 min 0 min 354 W/m 9,7 km/h (2 Bft) 100,00 %
16.02.2019 15:06 16,4 C 19,4 C 13,9 C 51 % 1023,2 hPa 0,0 l/m 2 min 0 min 346 W/m 16,1 km/h (3 Bft) 100,00 %
16.02.2019 15:08 16,4 C 19,4 C 13,9 C 52 % 1023,2 hPa 0,0 l/m 2 min 0 min 338 W/m 9,7 km/h (2 Bft) 100,00 %
16.02.2019 15:10 16,4 C 19,4 C 13,9 C 51 % 1023,3 hPa 0,0 l/m 2 min 0 min 338 W/m 9,7 km/h (2 Bft) 100,00 %
16.02.2019 15:12 16,4 C 20,0 C 13,9 C 52 % 1023,2 hPa 0,0 l/m 2 min 0 min 336 W/m 6,4 km/h (2 Bft) 97,87 %
16.02.2019 15:14 16,4 C 20,6 C 13,9 C 52 % 1023,2 hPa 0,0 l/m 2 min 0 min 331 W/m 6,4 km/h (2 Bft) 100,00 %
16.02.2019 15:16 16,4 C 20,6 C 13,9 C 52 % 1023,3 hPa 0,0 l/m 2 min 0 min 327 W/m 6,4 km/h (2 Bft) 97,87 %
16.02.2019 15:18 16,3 C 20,0 C 13,9 C 52 % 1023,3 hPa 0,0 l/m 2 min 0 min 299 W/m 12,9 km/h (3 Bft) 100,00 %
16.02.2019 15:20 16,3 C 18,9 C 13,9 C 50 % 1023,3 hPa 0,0 l/m 2 min 0 min 292 W/m 19,3 km/h (3 Bft) 100,00 %
16.02.2019 15:22 16,3 C 18,3 C 13,9 C 50 % 1023,3 hPa 0,0 l/m 2 min 0 min 299 W/m 16,1 km/h (3 Bft) 100,00 %
16.02.2019 15:24 16,2 C 18,9 C 13,9 C 50 % 1023,3 hPa 0,0 l/m 2 min 0 min 314 W/m 12,9 km/h (3 Bft) 100,00 %
16.02.2019 15:26 16,2 C 19,4 C 13,9 C 50 % 1023,2 hPa 0,0 l/m 2 min 0 min 315 W/m 9,7 km/h (2 Bft) 100,00 %
16.02.2019 15:28 16,2 C 19,4 C 13,9 C 50 % 1023,2 hPa 0,0 l/m 2 min 0 min 309 W/m 12,9 km/h (3 Bft) 100,00 %
16.02.2019 15:30 16,2 C 18,9 C 13,9 C 50 % 1023,2 hPa 0,0 l/m 2 min 0 min 294 W/m 12,9 km/h (3 Bft) 97,87 %
16.02.2019 15:32 16,2 C 18,9 C 13,9 C 50 % 1023,2 hPa 0,0 l/m 2 min 0 min 291 W/m 16,1 km/h (3 Bft) 100,00 %
16.02.2019 15:34 16,1 C 18,3 C 13,9 C 50 % 1023,1 hPa 0,0 l/m 2 min 0 min 289 W/m 19,3 km/h (3 Bft) 100,00 %
16.02.2019 15:36 16,1 C 18,3 C 13,9 C 50 % 1023,1 hPa 0,0 l/m 2 min 0 min 287 W/m 16,1 km/h (3 Bft) 100,00 %
16.02.2019 15:38 16,1 C 18,3 C 13,9 C 50 % 1023,2 hPa 0,0 l/m 2 min 0 min 278 W/m 12,9 km/h (3 Bft) 100,00 %
16.02.2019 15:40 16,1 C 18,3 C 13,9 C 50 % 1023,2 hPa 0,0 l/m 2 min 0 min 278 W/m 16,1 km/h (3 Bft) 95,74 %
16.02.2019 15:42 16,0 C 18,3 C 13,9 C 50 % 1023,1 hPa 0,0 l/m 2 min 0 min 278 W/m 12,9 km/h (3 Bft) 97,87 %
16.02.2019 15:44 16,0 C 18,9 C 13,9 C 51 % 1023,2 hPa 0,0 l/m 2 min 0 min 281 W/m 9,7 km/h (2 Bft) 97,87 %
16.02.2019 15:46 16,0 C 19,4 C 13,9 C 51 % 1023,2 hPa 0,0 l/m 2 min 0 min 281 W/m 9,7 km/h (2 Bft) 97,87 %
16.02.2019 15:48 16,0 C 19,4 C 13,9 C 51 % 1023,2 hPa 0,0 l/m 2 min 0 min 281 W/m 9,7 km/h (2 Bft) 95,74 %
16.02.2019 15:50 16,0 C 19,4 C 13,3 C 52 % 1023,1 hPa 0,0 l/m 2 min 0 min 275 W/m 9,7 km/h (2 Bft) 97,83 %
16.02.2019 15:52 16,0 C 19,4 C 13,3 C 52 % 1023,2 hPa 0,0 l/m 2 min 0 min 272 W/m 6,4 km/h (2 Bft) 97,87 %
16.02.2019 15:54 16,0 C 20,0 C 13,3 C 52 % 1023,1 hPa 0,0 l/m 2 min 0 min 263 W/m 6,4 km/h (2 Bft) 97,87 %
16.02.2019 15:56 16,0 C 18,9 C 13,3 C 52 % 1023,1 hPa 0,0 l/m 2 min 0 min 255 W/m 12,9 km/h (3 Bft) 93,62 %
16.02.2019 15:58 15,9 C 17,8 C 13,3 C 50 % 1023,1 hPa 0,0 l/m 2 min 0 min 230 W/m 16,1 km/h (3 Bft) 97,87 %
16.02.2019 16:00 15,9 C 17,2 C 13,3 C 50 % 1023,1 hPa 0,0 l/m 2 min 0 min 236 W/m 12,9 km/h (3 Bft) 97,87 %
16.02.2019 16:02 15,9 C 18,3 C 13,3 C 51 % 1023,0 hPa 0,0 l/m 2 min 0 min 236 W/m 6,4 km/h (2 Bft) 95,74 %
16.02.2019 16:04 15,8 C 18,3 C 13,3 C 52 % 1023,1 hPa 0,0 l/m 2 min 0 min 222 W/m 6,4 km/h (2 Bft) 97,87 %
16.02.2019 16:06 15,8 C 18,3 C 13,3 C 53 % 1023,0 hPa 0,0 l/m 2 min 0 min 207 W/m 3,2 km/h (1 Bft) 97,87 %
16.02.2019 16:08 15,8 C 18,3 C 13,3 C 53 % 1023,0 hPa 0,0 l/m 2 min 0 min 203 W/m 6,4 km/h (2 Bft) 97,87 %
16.02.2019 16:10 15,8 C 17,8 C 13,3 C 52 % 1023,1 hPa 0,0 l/m 2 min 0 min 204 W/m 12,9 km/h (3 Bft) 97,87 %
16.02.2019 16:12 15,8 C 17,8 C 13,3 C 52 % 1022,9 hPa 0,0 l/m 2 min 0 min 176 W/m 12,9 km/h (3 Bft) 97,87 %
16.02.2019 16:14 15,7 C 16,7 C 13,3 C 51 % 1022,9 hPa 0,0 l/m 2 min 0 min 148 W/m 16,1 km/h (3 Bft) 97,83 %
16.02.2019 16:16 15,7 C 16,7 C 13,3 C 51 % 1022,9 hPa 0,0 l/m 2 min 0 min 141 W/m 16,1 km/h (3 Bft) 97,87 %
16.02.2019 16:18 15,6 C 16,1 C 13,3 C 51 % 1023,0 hPa 0,0 l/m 2 min 0 min 147 W/m 16,1 km/h (3 Bft) 97,87 %
16.02.2019 16:20 15,6 C 16,1 C 13,3 C 51 % 1023,0 hPa 0,0 l/m 2 min 0 min 149 W/m 12,9 km/h (3 Bft) 97,87 %
16.02.2019 16:22 15,5 C 15,6 C 13,3 C 51 % 1023,1 hPa 0,0 l/m 2 min 0 min 113 W/m 9,7 km/h (2 Bft) 95,74 %
16.02.2019 16:24 15,5 C 15,0 C 12,8 C 52 % 1023,1 hPa 0,0 l/m 0 min 0 min 75 W/m 9,7 km/h (2 Bft) 95,65 %
16.02.2019 16:26 15,4 C 14,4 C 12,8 C 53 % 1023,0 hPa 0,0 l/m 0 min 0 min 70 W/m 6,4 km/h (2 Bft) 93,62 %
16.02.2019 16:28 15,4 C 14,4 C 12,8 C 53 % 1023,1 hPa 0,0 l/m 0 min 0 min 69 W/m 9,7 km/h (2 Bft) 95,74 %
16.02.2019 16:30 15,3 C 14,4 C 12,2 C 54 % 1023,1 hPa 0,0 l/m 0 min 0 min 68 W/m 6,4 km/h (2 Bft) 93,62 %
16.02.2019 16:32 15,3 C 13,9 C 12,2 C 54 % 1023,1 hPa 0,0 l/m 0 min 0 min 65 W/m 9,7 km/h (2 Bft) 95,83 %
16.02.2019 16:34 15,2 C 13,9 C 12,8 C 54 % 1023,0 hPa 0,0 l/m 0 min 0 min 62 W/m 9,7 km/h (2 Bft) 95,74 %
16.02.2019 16:36 15,2 C 13,9 C 12,2 C 54 % 1023,0 hPa 0,0 l/m 0 min 0 min 60 W/m 3,2 km/h (1 Bft) 95,65 %
16.02.2019 16:38 15,1 C 13,9 C 12,2 C 55 % 1022,9 hPa 0,0 l/m 0 min 0 min 59 W/m 3,2 km/h (1 Bft) 97,92 %
16.02.2019 16:40 15,1 C 13,9 C 12,2 C 55 % 1023,0 hPa 0,0 l/m 0 min 0 min 58 W/m 6,4 km/h (2 Bft) 93,62 %
16.02.2019 16:42 15,0 C 13,9 C 11,7 C 56 % 1022,9 hPa 0,0 l/m 0 min 0 min 55 W/m 3,2 km/h (1 Bft) 95,74 %
16.02.2019 16:44 14,9 C 13,9 C 11,7 C 56 % 1023,0 hPa 0,0 l/m 0 min 0 min 54 W/m 3,2 km/h (1 Bft) 91,49 %
16.02.2019 16:46 14,9 C 13,9 C 11,7 C 57 % 1022,9 hPa 0,0 l/m 0 min 0 min 54 W/m 6,4 km/h (2 Bft) 93,62 %
16.02.2019 16:48 14,8 C 13,3 C 11,1 C 58 % 1022,9 hPa 0,0 l/m 0 min 0 min 54 W/m 3,2 km/h (1 Bft) 95,65 %
16.02.2019 16:50 14,7 C 13,3 C 10,6 C 58 % 1022,9 hPa 0,0 l/m 0 min 0 min 53 W/m 3,2 km/h (1 Bft) 97,87 %
16.02.2019 16:52 14,7 C 13,3 C 10,6 C 58 % 1022,8 hPa 0,0 l/m 0 min 0 min 52 W/m 3,2 km/h (1 Bft) 95,74 %
16.02.2019 16:54 14,6 C 13,3 C 10,0 C 58 % 1022,8 hPa 0,0 l/m 0 min 0 min 50 W/m 6,4 km/h (2 Bft) 95,74 %
16.02.2019 16:56 14,6 C 13,3 C 10,6 C 58 % 1022,8 hPa 0,0 l/m 0 min 0 min 49 W/m 3,2 km/h (1 Bft) 93,62 %
16.02.2019 16:58 14,5 C 13,3 C 10,0 C 58 % 1022,8 hPa 0,0 l/m 0 min 0 min 48 W/m 3,2 km/h (1 Bft) 95,74 %
16.02.2019 17:00 14,4 C 13,3 C 10,6 C 58 % 1022,7 hPa 0,0 l/m 0 min 0 min 47 W/m 3,2 km/h (1 Bft) 95,65 %
16.02.2019 17:02 14,4 C 12,8 C 10,0 C 58 % 1022,7 hPa 0,0 l/m 0 min 0 min 44 W/m 3,2 km/h (1 Bft) 95,74 %
16.02.2019 17:04 14,3 C 13,3 C 10,0 C 57 % 1022,8 hPa 0,0 l/m 0 min 0 min 42 W/m 6,4 km/h (2 Bft) 93,62 %
16.02.2019 17:06 14,3 C 12,8 C 10,0 C 58 % 1022,7 hPa 0,0 l/m 0 min 0 min 40 W/m 3,2 km/h (1 Bft) 95,74 %
16.02.2019 17:08 14,2 C 12,8 C 10,0 C 57 % 1022,7 hPa 0,0 l/m 0 min 0 min 38 W/m 6,4 km/h (2 Bft) 95,74 %
16.02.2019 17:10 14,2 C 12,8 C 10,0 C 57 % 1022,7 hPa 0,0 l/m 0 min 0 min 36 W/m 6,4 km/h (2 Bft) 95,74 %
16.02.2019 17:12 14,2 C 12,8 C 10,0 C 57 % 1022,7 hPa 0,0 l/m 0 min 0 min 34 W/m 6,4 km/h (2 Bft) 95,65 %
16.02.2019 17:14 14,2 C 12,8 C 10,0 C 57 % 1022,7 hPa 0,0 l/m 0 min 0 min 33 W/m 6,4 km/h (2 Bft) 93,62 %
16.02.2019 17:16 14,1 C 12,8 C 10,0 C 57 % 1022,8 hPa 0,0 l/m 0 min 0 min 31 W/m 6,4 km/h (2 Bft) 97,87 %
16.02.2019 17:18 14,0 C 12,8 C 10,0 C 57 % 1022,8 hPa 0,0 l/m 0 min 0 min 28 W/m 6,4 km/h (2 Bft) 97,87 %
16.02.2019 17:20 13,9 C 12,8 C 10,0 C 57 % 1022,7 hPa 0,0 l/m 0 min 0 min 26 W/m 3,2 km/h (1 Bft) 100,00 %
16.02.2019 17:22 13,9 C 12,8 C 9,4 C 57 % 1022,8 hPa 0,0 l/m 0 min 0 min 25 W/m 3,2 km/h (1 Bft) 97,83 %
16.02.2019 17:24 13,8 C 12,2 C 9,4 C 58 % 1022,9 hPa 0,0 l/m 0 min 0 min 23 W/m 3,2 km/h (1 Bft) 100,00 %
16.02.2019 17:26 13,8 C 12,2 C 8,9 C 58 % 1022,9 hPa 0,0 l/m 0 min 0 min 21 W/m 3,2 km/h (1 Bft) 100,00 %
16.02.2019 17:28 13,8 C 12,2 C 8,9 C 58 % 1022,8 hPa 0,0 l/m 0 min 0 min 19 W/m 3,2 km/h (1 Bft) 100,00 %
16.02.2019 17:30 13,7 C 12,2 C 8,3 C 57 % 1022,9 hPa 0,0 l/m 0 min 0 min 18 W/m 6,4 km/h (2 Bft) 100,00 %
16.02.2019 17:32 13,7 C 12,2 C 8,3 C 58 % 1022,8 hPa 0,0 l/m 0 min 0 min 17 W/m 3,2 km/h (1 Bft) 97,92 %
16.02.2019 17:34 13,6 C 12,2 C 8,3 C 58 % 1022,8 hPa 0,0 l/m 0 min 0 min 15 W/m 3,2 km/h (1 Bft) 97,83 %
16.02.2019 17:36 13,6 C 12,2 C 7,8 C 58 % 1022,7 hPa 0,0 l/m 0 min 0 min 13 W/m 3,2 km/h (1 Bft) 100,00 %
16.02.2019 17:38 13,5 C 11,7 C 7,8 C 58 % 1022,7 hPa 0,0 l/m 0 min 0 min 12 W/m 3,2 km/h (1 Bft) 100,00 %
16.02.2019 17:40 13,4 C 11,7 C 7,2 C 58 % 1022,8 hPa 0,0 l/m 0 min 0 min 11 W/m 3,2 km/h (1 Bft) 100,00 %
16.02.2019 17:42 13,4 C 11,7 C 7,2 C 59 % 1022,8 hPa 0,0 l/m 0 min 0 min 9 W/m 3,2 km/h (1 Bft) 100,00 %
16.02.2019 17:44 13,3 C 11,1 C 7,2 C 59 % 1022,7 hPa 0,0 l/m 0 min 0 min 7 W/m 3,2 km/h (1 Bft) 100,00 %
16.02.2019 17:46 13,2 C 11,1 C 7,2 C 59 % 1022,8 hPa 0,0 l/m 0 min 0 min 6 W/m 3,2 km/h (1 Bft) 100,00 %
16.02.2019 17:48 13,1 C 10,6 C 6,7 C 60 % 1022,8 hPa 0,0 l/m 0 min 0 min 5 W/m 0,0 km/h (0 Bft) 100,00 %
16.02.2019 17:50 13,0 C 10,0 C 6,7 C 60 % 1022,8 hPa 0,0 l/m 0 min 0 min 2 W/m 0,0 km/h (0 Bft) 95,65 %
16.02.2019 17:52 12,9 C 10,0 C 6,7 C 61 % 1022,8 hPa 0,0 l/m 0 min 0 min 0 W/m 0,0 km/h (0 Bft) 89,36 %
16.02.2019 17:54 12,8 C 9,4 C 6,7 C 62 % 1022,9 hPa 0,0 l/m 0 min 0 min 0 W/m 3,2 km/h (1 Bft) 82,98 %
16.02.2019 17:56 12,6 C 9,4 C 6,7 C 62 % 1022,9 hPa 0,0 l/m 0 min 0 min 0 W/m 3,2 km/h (1 Bft) 97,87 %
16.02.2019 17:58 12,4 C 8,9 C 6,1 C 62 % 1022,9 hPa 0,0 l/m 0 min 0 min 0 W/m 0,0 km/h (0 Bft) 100,00 %
16.02.2019 18:00 12,3 C 8,9 C 6,1 C 63 % 1022,9 hPa 0,0 l/m 0 min 0 min 0 W/m 0,0 km/h (0 Bft) 97,87 %
16.02.2019 18:02 12,2 C 8,3 C 6,1 C 63 % 1022,9 hPa 0,0 l/m 0 min 0 min 0 W/m 0,0 km/h (0 Bft) 94,29 %
16.02.2019 18:04 12,0 C 8,3 C 6,1 C 64 % 1022,8 hPa 0,0 l/m 0 min 0 min 0 W/m 0,0 km/h (0 Bft) 89,13 %
16.02.2019 18:08 11,7 C 7,8 C 5,6 C 64 % 1022,8 hPa 0,0 l/m 0 min 0 min 0 W/m 0,0 km/h (0 Bft) 80,85 %
16.02.2019 18:10 11,6 C 7,8 C 5,6 C 65 % 1022,9 hPa 0,0 l/m 0 min 0 min 0 W/m 0,0 km/h (0 Bft) 87,23 %
16.02.2019 18:12 11,4 C 7,8 C 5,6 C 65 % 1022,8 hPa 0,0 l/m 0 min 0 min 0 W/m 0,0 km/h (0 Bft) 87,23 %
16.02.2019 18:14 11,2 C 7,8 C 5,6 C 66 % 1022,9 hPa 0,0 l/m 0 min 0 min 0 W/m 0,0 km/h (0 Bft) 85,11 %
16.02.2019 18:16 11,1 C 7,2 C 5,6 C 66 % 1022,9 hPa 0,0 l/m 0 min 0 min 0 W/m 0,0 km/h (0 Bft) 82,61 %
16.02.2019 18:18 10,9 C 7,2 C 5,6 C 66 % 1022,9 hPa 0,0 l/m 0 min 0 min 0 W/m 0,0 km/h (0 Bft) 87,23 %
16.02.2019 18:20 10,8 C 7,2 C 5,0 C 67 % 1022,8 hPa 0,0 l/m 0 min 0 min 0 W/m 0,0 km/h (0 Bft) 78,72 %
16.02.2019 18:22 10,7 C 7,2 C 5,0 C 67 % 1022,9 hPa 0,0 l/m 0 min 0 min 0 W/m 0,0 km/h (0 Bft) 87,23 %
16.02.2019 18:24 10,5 C 7,2 C 5,0 C 68 % 1022,8 hPa 0,0 l/m 0 min 0 min 0 W/m 0,0 km/h (0 Bft) 97,87 %
16.02.2019 18:26 10,4 C 7,2 C 5,0 C 68 % 1022,8 hPa 0,0 l/m 0 min 0 min 0 W/m 0,0 km/h (0 Bft) 97,87 %
16.02.2019 18:28 10,3 C 6,7 C 5,0 C 68 % 1022,8 hPa 0,0 l/m 0 min 0 min 0 W/m 0,0 km/h (0 Bft) 95,65 %
16.02.2019 18:30 10,2 C 6,7 C 5,0 C 68 % 1022,9 hPa 0,0 l/m 0 min 0 min 0 W/m 0,0 km/h (0 Bft) 95,74 %
16.02.2019 18:32 10,1 C 6,7 C 5,0 C 69 % 1022,8 hPa 0,0 l/m 0 min 0 min 0 W/m 0,0 km/h (0 Bft) 97,87 %
16.02.2019 18:34 9,9 C 6,7 C 5,0 C 69 % 1022,8 hPa 0,0 l/m 0 min 0 min 0 W/m 3,2 km/h (1 Bft) 97,87 %
16.02.2019 18:36 9,8 C 6,7 C 5,0 C 69 % 1022,8 hPa 0,0 l/m 0 min 0 min 0 W/m 0,0 km/h (0 Bft) 97,87 %
16.02.2019 18:38 9,8 C 6,7 C 4,4 C 69 % 1022,8 hPa 0,0 l/m 0 min 0 min 0 W/m 0,0 km/h (0 Bft) 100,00 %
16.02.2019 18:40 9,7 C 6,7 C 4,4 C 70 % 1022,8 hPa 0,0 l/m 0 min 0 min 0 W/m 0,0 km/h (0 Bft) 97,87 %
16.02.2019 18:42 9,6 C 6,7 C 4,4 C 70 % 1022,8 hPa 0,0 l/m 0 min 0 min 0 W/m 0,0 km/h (0 Bft) 93,62 %
16.02.2019 18:44 9,5 C 6,7 C 4,4 C 70 % 1022,8 hPa 0,0 l/m 0 min 0 min 0 W/m 0,0 km/h (0 Bft) 97,87 %
16.02.2019 18:46 9,4 C 6,7 C 4,4 C 70 % 1022,7 hPa 0,0 l/m 0 min 0 min 0 W/m 0,0 km/h (0 Bft) 97,83 %
16.02.2019 18:48 9,3 C 6,1 C 4,4 C 70 % 1022,7 hPa 0,0 l/m 0 min 0 min 0 W/m 0,0 km/h (0 Bft) 97,87 %
16.02.2019 18:50 9,2 C 6,1 C 4,4 C 71 % 1022,7 hPa 0,0 l/m 0 min 0 min 0 W/m 0,0 km/h (0 Bft) 97,87 %
16.02.2019 18:52 9,1 C 6,1 C 4,4 C 71 % 1022,8 hPa 0,0 l/m 0 min 0 min 0 W/m 0,0 km/h (0 Bft) 97,87 %
16.02.2019 18:54 9,0 C 6,1 C 4,4 C 71 % 1022,8 hPa 0,0 l/m 0 min 0 min 0 W/m 0,0 km/h (0 Bft) 97,87 %
16.02.2019 18:56 8,9 C 6,1 C 4,4 C 72 % 1022,8 hPa 0,0 l/m 0 min 0 min 0 W/m 0,0 km/h (0 Bft) 97,87 %
16.02.2019 18:58 8,8 C 6,1 C 3,9 C 72 % 1022,8 hPa 0,0 l/m 0 min 0 min 0 W/m 0,0 km/h (0 Bft) 97,83 %
16.02.2019 19:00 8,7 C 6,1 C 3,9 C 72 % 1022,9 hPa 0,0 l/m 0 min 0 min 0 W/m 0,0 km/h (0 Bft) 95,74 %
16.02.2019 19:02 8,7 C 6,1 C 3,9 C 72 % 1022,9 hPa 0,0 l/m 0 min 0 min 0 W/m 0,0 km/h (0 Bft) 97,87 %
16.02.2019 19:04 8,6 C 6,1 C 3,9 C 73 % 1022,9 hPa 0,0 l/m 0 min 0 min 0 W/m 0,0 km/h (0 Bft) 100,00 %
16.02.2019 19:06 8,5 C 6,1 C 3,9 C 73 % 1022,9 hPa 0,0 l/m 0 min 0 min 0 W/m 0,0 km/h (0 Bft) 95,74 %
16.02.2019 19:08 8,4 C 5,6 C 3,9 C 73 % 1022,8 hPa 0,0 l/m 0 min 0 min 0 W/m 0,0 km/h (0 Bft) 100,00 %
16.02.2019 19:10 8,4 C 5,6 C 3,9 C 73 % 1022,9 hPa 0,0 l/m 0 min 0 min 0 W/m 0,0 km/h (0 Bft) 100,00 %
16.02.2019 19:12 8,3 C 5,6 C 3,9 C 73 % 1022,8 hPa 0,0 l/m 0 min 0 min 0 W/m 0,0 km/h (0 Bft) 97,87 %
16.02.2019 19:14 8,2 C 5,6 C 3,9 C 73 % 1022,9 hPa 0,0 l/m 0 min 0 min 0 W/m 0,0 km/h (0 Bft) 100,00 %
16.02.2019 19:16 8,2 C 5,6 C 3,9 C 74 % 1022,9 hPa 0,0 l/m 0 min 0 min 0 W/m 0,0 km/h (0 Bft) 97,87 %
16.02.2019 19:18 8,1 C 5,6 C 3,9 C 74 % 1022,9 hPa 0,0 l/m 0 min 0 min 0 W/m 0,0 km/h (0 Bft) 100,00 %
16.02.2019 19:20 8,1 C 5,6 C 3,9 C 74 % 1022,9 hPa 0,0 l/m 0 min 0 min 0 W/m 0,0 km/h (0 Bft) 100,00 %
16.02.2019 19:22 8,0 C 5,6 C 3,9 C 74 % 1022,9 hPa 0,0 l/m 0 min 0 min 0 W/m 0,0 km/h (0 Bft) 97,87 %
16.02.2019 19:24 7,9 C 5,6 C 3,9 C 74 % 1022,9 hPa 0,0 l/m 0 min 0 min 0 W/m 0,0 km/h (0 Bft) 97,87 %
16.02.2019 19:26 7,8 C 5,0 C 3,3 C 75 % 1022,9 hPa 0,0 l/m 0 min 0 min 0 W/m 0,0 km/h (0 Bft) 95,74 %
16.02.2019 19:28 7,8 C 5,0 C 3,3 C 75 % 1022,9 hPa 0,0 l/m 0 min 0 min 0 W/m 0,0 km/h (0 Bft) 97,87 %
16.02.2019 19:30 7,7 C 5,0 C 3,3 C 75 % 1022,9 hPa 0,0 l/m 0 min 0 min 0 W/m 0,0 km/h (0 Bft) 97,87 %
16.02.2019 19:32 7,6 C 5,0 C 3,3 C 75 % 1022,9 hPa 0,0 l/m 0 min 0 min 0 W/m 0,0 km/h (0 Bft) 97,87 %
16.02.2019 19:34 7,6 C 5,0 C 3,3 C 76 % 1022,9 hPa 0,0 l/m 0 min 0 min 0 W/m 0,0 km/h (0 Bft) 97,87 %
16.02.2019 19:36 7,5 C 5,0 C 3,3 C 76 % 1022,9 hPa 0,0 l/m 0 min 0 min 0 W/m 0,0 km/h (0 Bft) 95,74 %
16.02.2019 19:38 7,4 C 5,0 C 3,3 C 76 % 1023,0 hPa 0,0 l/m 0 min 0 min 0 W/m 0,0 km/h (0 Bft) 97,87 %
16.02.2019 19:40 7,4 C 6,1 C 3,3 C 76 % 1023,0 hPa 0,0 l/m 0 min 0 min 0 W/m 6,4 km/h (2 Bft) 97,87 %
16.02.2019 19:42 7,3 C 6,1 C 3,3 C 77 % 1022,9 hPa 0,0 l/m 0 min 0 min 0 W/m 3,2 km/h (1 Bft) 97,87 %
16.02.2019 19:44 7,3 C 6,1 C 3,3 C 77 % 1022,9 hPa 0,0 l/m 0 min 0 min 0 W/m 3,2 km/h (1 Bft) 97,83 %
16.02.2019 19:46 7,2 C 6,1 C 3,3 C 77 % 1022,9 hPa 0,0 l/m 0 min 0 min 0 W/m 3,2 km/h (1 Bft) 97,92 %
16.02.2019 19:48 7,2 C 6,1 C 3,3 C 78 % 1022,9 hPa 0,0 l/m 0 min 0 min 0 W/m 3,2 km/h (1 Bft) 97,87 %
16.02.2019 19:50 7,2 C 5,6 C 3,3 C 78 % 1022,9 hPa 0,0 l/m 0 min 0 min 0 W/m 3,2 km/h (1 Bft) 97,87 %
16.02.2019 19:52 7,1 C 5,6 C 3,3 C 78 % 1023,0 hPa 0,0 l/m 0 min 0 min 0 W/m 0,0 km/h (0 Bft) 97,87 %
16.02.2019 19:54 7,1 C 5,0 C 3,3 C 78 % 1023,0 hPa 0,0 l/m 0 min 0 min 0 W/m 0,0 km/h (0 Bft) 95,74 %
16.02.2019 19:56 7,1 C 5,0 C 3,3 C 78 % 1022,9 hPa 0,0 l/m 0 min 0 min 0 W/m 0,0 km/h (0 Bft) 97,83 %
16.02.2019 19:58 7,0 C 5,0 C 3,3 C 78 % 1022,9 hPa 0,0 l/m 0 min 0 min 0 W/m 0,0 km/h (0 Bft) 95,74 %
16.02.2019 20:00 6,9 C 5,0 C 3,3 C 78 % 1022,9 hPa 0,0 l/m 0 min 0 min 0 W/m 0,0 km/h (0 Bft) 95,74 %
16.02.2019 20:02 6,9 C 5,6 C 3,3 C 78 % 1022,8 hPa 0,0 l/m 0 min 0 min 0 W/m 3,2 km/h (1 Bft) 95,74 %
16.02.2019 20:04 6,9 C 6,1 C 3,3 C 78 % 1022,8 hPa 0,0 l/m 0 min 0 min 0 W/m 3,2 km/h (1 Bft) 93,62 %
16.02.2019 20:06 6,8 C 6,1 C 3,3 C 79 % 1022,9 hPa 0,0 l/m 0 min 0 min 0 W/m 3,2 km/h (1 Bft) 93,48 %
16.02.2019 20:08 6,8 C 6,1 C 3,3 C 79 % 1022,8 hPa 0,0 l/m 0 min 0 min 0 W/m 3,2 km/h (1 Bft) 93,62 %
16.02.2019 20:10 6,8 C 6,1 C 3,3 C 79 % 1022,9 hPa 0,0 l/m 0 min 0 min 0 W/m 0,0 km/h (0 Bft) 89,36 %
16.02.2019 20:12 6,8 C 5,6 C 3,3 C 79 % 1022,8 hPa 0,0 l/m 0 min 0 min 0 W/m 0,0 km/h (0 Bft) 91,49 %
16.02.2019 20:14 6,7 C 5,6 C 3,3 C 79 % 1023,0 hPa 0,0 l/m 0 min 0 min 0 W/m 0,0 km/h (0 Bft) 91,49 %
16.02.2019 20:16 6,7 C 5,0 C 3,3 C 79 % 1022,9 hPa 0,0 l/m 0 min 0 min 0 W/m 0,0 km/h (0 Bft) 93,62 %
16.02.2019 20:18 6,7 C 5,0 C 2,8 C 79 % 1022,9 hPa 0,0 l/m 0 min 0 min 0 W/m 0,0 km/h (0 Bft) 91,30 %
16.02.2019 20:20 6,7 C 5,0 C 2,8 C 79 % 1022,9 hPa 0,0 l/m 0 min 0 min 0 W/m 0,0 km/h (0 Bft) 91,49 %
16.02.2019 20:22 6,6 C 5,0 C 2,8 C 79 % 1022,9 hPa 0,0 l/m 0 min 0 min 0 W/m 0,0 km/h (0 Bft) 93,62 %
16.02.2019 20:24 6,6 C 5,0 C 2,8 C 79 % 1022,9 hPa 0,0 l/m 0 min 0 min 0 W/m 3,2 km/h (1 Bft) 93,62 %
16.02.2019 20:26 6,6 C 5,6 C 2,8 C 79 % 1022,9 hPa 0,0 l/m 0 min 0 min 0 W/m 3,2 km/h (1 Bft) 91,49 %
16.02.2019 20:28 6,5 C 5,6 C 2,8 C 79 % 1022,9 hPa 0,0 l/m 0 min 0 min 0 W/m 3,2 km/h (1 Bft) 91,49 %
16.02.2019 20:30 6,5 C 6,1 C 2,8 C 79 % 1022,9 hPa 0,0 l/m 0 min 0 min 0 W/m 3,2 km/h (1 Bft) 93,48 %
16.02.2019 20:32 6,4 C 6,1 C 2,8 C 80 % 1022,9 hPa 0,0 l/m 0 min 0 min 0 W/m 3,2 km/h (1 Bft) 93,62 %
16.02.2019 20:34 6,4 C 5,6 C 2,8 C 80 % 1022,9 hPa 0,0 l/m 0 min 0 min 0 W/m 3,2 km/h (1 Bft) 95,74 %
16.02.2019 20:36 6,4 C 5,6 C 2,8 C 80 % 1022,9 hPa 0,0 l/m 0 min 0 min 0 W/m 3,2 km/h (1 Bft) 95,74 %
16.02.2019 20:38 6,4 C 6,1 C 2,8 C 80 % 1022,9 hPa 0,0 l/m 0 min 0 min 0 W/m 3,2 km/h (1 Bft) 95,74 %
16.02.2019 20:40 6,4 C 6,7 C 2,8 C 80 % 1022,8 hPa 0,0 l/m 0 min 0 min 0 W/m 3,2 km/h (1 Bft) 95,65 %
16.02.2019 20:42 6,4 C 6,1 C 2,8 C 80 % 1022,8 hPa 0,0 l/m 0 min 0 min 0 W/m 3,2 km/h (1 Bft) 95,74 %
16.02.2019 20:44 6,4 C 6,1 C 2,8 C 81 % 1022,8 hPa 0,0 l/m 0 min 0 min 0 W/m 0,0 km/h (0 Bft) 91,49 %
16.02.2019 20:46 6,4 C 5,6 C 2,8 C 81 % 1022,8 hPa 0,0 l/m 0 min 0 min 0 W/m 0,0 km/h (0 Bft) 93,62 %
16.02.2019 20:48 6,3 C 5,0 C 2,8 C 81 % 1022,8 hPa 0,0 l/m 0 min 0 min 0 W/m 0,0 km/h (0 Bft) 95,74 %
16.02.2019 20:50 6,3 C 5,0 C 2,8 C 80 % 1022,9 hPa 0,0 l/m 0 min 0 min 0 W/m 0,0 km/h (0 Bft) 93,62 %
16.02.2019 20:52 6,3 C 5,0 C 2,2 C 80 % 1022,9 hPa 0,0 l/m 0 min 0 min 0 W/m 0,0 km/h (0 Bft) 91,30 %
16.02.2019 20:54 6,2 C 4,4 C 2,2 C 80 % 1022,9 hPa 0,0 l/m 0 min 0 min 0 W/m 0,0 km/h (0 Bft) 97,87 %
16.02.2019 20:56 6,2 C 4,4 C 2,2 C 80 % 1022,9 hPa 0,0 l/m 0 min 0 min 0 W/m 0,0 km/h (0 Bft) 97,87 %
16.02.2019 20:58 6,2 C 4,4 C 2,2 C 80 % 1022,8 hPa 0,0 l/m 0 min 0 min 0 W/m 0,0 km/h (0 Bft) 93,62 %
16.02.2019 21:00 6,2 C 4,4 C 2,2 C 80 % 1022,9 hPa 0,0 l/m 0 min 0 min 0 W/m 0,0 km/h (0 Bft) 93,62 %
16.02.2019 21:02 6,1 C 4,4 C 2,2 C 80 % 1022,8 hPa 0,0 l/m 0 min 0 min 0 W/m 0,0 km/h (0 Bft) 100,00 %
16.02.2019 21:04 6,1 C 3,9 C 2,2 C 80 % 1022,8 hPa 0,0 l/m 0 min 0 min 0 W/m 0,0 km/h (0 Bft) 100,00 %
16.02.2019 21:06 6,1 C 3,9 C 2,2 C 80 % 1022,8 hPa 0,0 l/m 0 min 0 min 0 W/m 0,0 km/h (0 Bft) 97,87 %
16.02.2019 21:08 6,0 C 3,9 C 2,2 C 80 % 1022,8 hPa 0,0 l/m 0 min 0 min 0 W/m 0,0 km/h (0 Bft) 95,74 %
16.02.2019 21:10 5,9 C 3,9 C 2,2 C 80 % 1022,8 hPa 0,0 l/m 0 min 0 min 0 W/m 0,0 km/h (0 Bft) 100,00 %
16.02.2019 21:12 5,9 C 3,9 C 2,2 C 80 % 1022,8 hPa 0,0 l/m 0 min 0 min 0 W/m 0,0 km/h (0 Bft) 97,87 %
16.02.2019 21:14 5,9 C 3,9 C 2,2 C 80 % 1022,8 hPa 0,0 l/m 0 min 0 min 0 W/m 0,0 km/h (0 Bft) 97,87 %
16.02.2019 21:16 5,8 C 3,9 C 2,2 C 80 % 1022,8 hPa 0,0 l/m 0 min 0 min 0 W/m 0,0 km/h (0 Bft) 97,87 %
16.02.2019 21:18 5,8 C 3,9 C 2,2 C 80 % 1022,7 hPa 0,0 l/m 0 min 0 min 0 W/m 0,0 km/h (0 Bft) 97,87 %
16.02.2019 21:20 5,8 C 3,9 C 2,2 C 80 % 1022,7 hPa 0,0 l/m 0 min 0 min 0 W/m 0,0 km/h (0 Bft) 100,00 %
16.02.2019 21:22 5,7 C 3,9 C 2,2 C 80 % 1022,7 hPa 0,0 l/m 0 min 0 min 0 W/m 0,0 km/h (0 Bft) 97,87 %
16.02.2019 21:24 5,7 C 3,3 C 1,7 C 80 % 1022,8 hPa 0,0 l/m 0 min 0 min 0 W/m 0,0 km/h (0 Bft) 100,00 %
16.02.2019 21:26 5,6 C 3,3 C 1,7 C 80 % 1022,7 hPa 0,0 l/m 0 min 0 min 0 W/m 0,0 km/h (0 Bft) 97,83 %
16.02.2019 21:28 5,6 C 3,3 C 1,7 C 80 % 1022,7 hPa 0,0 l/m 0 min 0 min 0 W/m 0,0 km/h (0 Bft) 97,87 %
16.02.2019 21:30 5,6 C 3,3 C 1,7 C 80 % 1022,7 hPa 0,0 l/m 0 min 0 min 0 W/m 0,0 km/h (0 Bft) 97,87 %
16.02.2019 21:32 5,5 C 3,3 C 1,7 C 80 % 1022,8 hPa 0,0 l/m 0 min 0 min 0 W/m 0,0 km/h (0 Bft) 97,87 %
16.02.2019 21:34 5,4 C 2,8 C 1,7 C 80 % 1022,7 hPa 0,0 l/m 0 min 0 min 0 W/m 0,0 km/h (0 Bft) 95,74 %
16.02.2019 21:36 5,4 C 2,8 C 1,7 C 81 % 1022,8 hPa 0,0 l/m 0 min 0 min 0 W/m 0,0 km/h (0 Bft) 100,00 %
16.02.2019 21:38 5,3 C 2,8 C 1,7 C 81 % 1022,7 hPa 0,0 l/m 0 min 0 min 0 W/m 0,0 km/h (0 Bft) 97,83 %
16.02.2019 21:40 5,3 C 2,8 C 1,7 C 81 % 1022,7 hPa 0,0 l/m 0 min 0 min 0 W/m 0,0 km/h (0 Bft) 97,87 %
16.02.2019 21:42 5,2 C 2,8 C 1,7 C 81 % 1022,7 hPa 0,0 l/m 0 min 0 min 0 W/m 0,0 km/h (0 Bft) 97,87 %
16.02.2019 21:44 5,2 C 2,8 C 1,7 C 81 % 1022,7 hPa 0,0 l/m 0 min 0 min 0 W/m 0,0 km/h (0 Bft) 95,74 %
16.02.2019 21:46 5,2 C 2,8 C 1,7 C 81 % 1022,7 hPa 0,0 l/m 0 min 0 min 0 W/m 0,0 km/h (0 Bft) 97,87 %
16.02.2019 21:48 5,1 C 2,8 C 1,7 C 81 % 1022,7 hPa 0,0 l/m 0 min 0 min 0 W/m 0,0 km/h (0 Bft) 95,74 %
16.02.2019 21:50 5,1 C 2,8 C 1,7 C 81 % 1022,7 hPa 0,0 l/m 0 min 0 min 0 W/m 0,0 km/h (0 Bft) 95,65 %
16.02.2019 21:52 5,0 C 2,8 C 1,7 C 81 % 1022,8 hPa 0,0 l/m 0 min 0 min 0 W/m 0,0 km/h (0 Bft) 97,87 %
16.02.2019 21:54 4,9 C 2,8 C 1,7 C 81 % 1022,7 hPa 0,0 l/m 0 min 0 min 0 W/m 0,0 km/h (0 Bft) 95,74 %
16.02.2019 21:56 4,9 C 2,8 C 1,1 C 81 % 1022,7 hPa 0,0 l/m 0 min 0 min 0 W/m 0,0 km/h (0 Bft) 95,74 %
16.02.2019 21:58 4,8 C 2,8 C 1,1 C 82 % 1022,8 hPa 0,0 l/m 0 min 0 min 0 W/m 0,0 km/h (0 Bft) 97,87 %
16.02.2019 22:00 4,8 C 2,8 C 1,1 C 82 % 1022,8 hPa 0,0 l/m 0 min 0 min 0 W/m 0,0 km/h (0 Bft) 97,87 %
16.02.2019 22:02 4,8 C 2,8 C 1,1 C 82 % 1022,7 hPa 0,0 l/m 0 min 0 min 0 W/m 0,0 km/h (0 Bft) 100,00 %
16.02.2019 22:04 4,7 C 2,8 C 1,1 C 82 % 1022,7 hPa 0,0 l/m 0 min 0 min 0 W/m 0,0 km/h (0 Bft) 97,87 %
16.02.2019 22:06 4,7 C 2,8 C 1,1 C 82 % 1022,8 hPa 0,0 l/m 0 min 0 min 0 W/m 0,0 km/h (0 Bft) 100,00 %
16.02.2019 22:08 4,6 C 2,8 C 1,1 C 82 % 1022,7 hPa 0,0 l/m 0 min 0 min 0 W/m 0,0 km/h (0 Bft) 100,00 %
16.02.2019 22:10 4,6 C 2,8 C 1,1 C 82 % 1022,8 hPa 0,0 l/m 0 min 0 min 0 W/m 0,0 km/h (0 Bft) 100,00 %
16.02.2019 22:12 4,6 C 2,8 C 1,1 C 82 % 1022,8 hPa 0,0 l/m 0 min 0 min 0 W/m 0,0 km/h (0 Bft) 97,87 %
16.02.2019 22:14 4,5 C 2,8 C 1,1 C 82 % 1022,7 hPa 0,0 l/m 0 min 0 min 0 W/m 0,0 km/h (0 Bft) 100,00 %
16.02.2019 22:16 4,4 C 2,8 C 1,1 C 82 % 1022,7 hPa 0,0 l/m 0 min 0 min 0 W/m 3,2 km/h (1 Bft) 100,00 %
16.02.2019 22:18 4,4 C 3,9 C 1,7 C 83 % 1022,7 hPa 0,0 l/m 0 min 0 min 0 W/m 6,4 km/h (2 Bft) 100,00 %
16.02.2019 22:20 4,4 C 3,9 C 1,7 C 83 % 1022,7 hPa 0,0 l/m 0 min 0 min 0 W/m 6,4 km/h (2 Bft) 100,00 %
16.02.2019 22:22 4,4 C 4,4 C 2,2 C 84 % 1022,7 hPa 0,0 l/m 0 min 0 min 0 W/m 6,4 km/h (2 Bft) 100,00 %
16.02.2019 22:24 4,4 C 4,4 C 2,2 C 84 % 1022,7 hPa 0,0 l/m 0 min 0 min 0 W/m 6,4 km/h (2 Bft) 100,00 %
16.02.2019 22:26 4,4 C 4,4 C 2,2 C 84 % 1022,8 hPa 0,0 l/m 0 min 0 min 0 W/m 3,2 km/h (1 Bft) 100,00 %
16.02.2019 22:28 4,4 C 4,4 C 2,2 C 85 % 1022,8 hPa 0,0 l/m 0 min 0 min 0 W/m 3,2 km/h (1 Bft) 97,83 %
16.02.2019 22:30 4,4 C 4,4 C 2,2 C 85 % 1022,7 hPa 0,0 l/m 0 min 0 min 0 W/m 3,2 km/h (1 Bft) 100,00 %
16.02.2019 22:32 4,4 C 4,4 C 2,2 C 85 % 1022,7 hPa 0,0 l/m 0 min 0 min 0 W/m 3,2 km/h (1 Bft) 100,00 %
16.02.2019 22:34 4,4 C 4,4 C 1,7 C 86 % 1022,7 hPa 0,0 l/m 0 min 0 min 0 W/m 3,2 km/h (1 Bft) 100,00 %
16.02.2019 22:36 4,4 C 3,9 C 1,7 C 86 % 1022,7 hPa 0,0 l/m 0 min 0 min 0 W/m 0,0 km/h (0 Bft) 100,00 %
16.02.2019 22:38 4,4 C 3,9 C 1,7 C 86 % 1022,6 hPa 0,0 l/m 0 min 0 min 0 W/m 0,0 km/h (0 Bft) 100,00 %
16.02.2019 22:40 4,4 C 3,3 C 1,7 C 86 % 1022,6 hPa 0,0 l/m 0 min 0 min 0 W/m 0,0 km/h (0 Bft) 100,00 %
16.02.2019 22:42 4,4 C 3,3 C 1,7 C 86 % 1022,7 hPa 0,0 l/m 0 min 0 min 0 W/m 0,0 km/h (0 Bft) 100,00 %
16.02.2019 22:44 4,4 C 2,8 C 1,7 C 86 % 1022,7 hPa 0,0 l/m 0 min 0 min 0 W/m 0,0 km/h (0 Bft) 100,00 %
16.02.2019 22:46 4,4 C 2,8 C 1,1 C 86 % 1022,7 hPa 0,0 l/m 0 min 0 min 0 W/m 0,0 km/h (0 Bft) 100,00 %
16.02.2019 22:48 4,3 C 2,8 C 1,1 C 86 % 1022,7 hPa 0,0 l/m 0 min 0 min 0 W/m 0,0 km/h (0 Bft) 100,00 %
16.02.2019 22:50 4,3 C 2,8 C 1,1 C 86 % 1022,7 hPa 0,0 l/m 0 min 0 min 0 W/m 0,0 km/h (0 Bft) 100,00 %
16.02.2019 22:52 4,3 C 2,8 C 1,1 C 86 % 1022,7 hPa 0,0 l/m 0 min 0 min 0 W/m 0,0 km/h (0 Bft) 100,00 %
16.02.2019 22:54 4,3 C 2,8 C 1,1 C 86 % 1022,7 hPa 0,0 l/m 0 min 0 min 0 W/m 3,2 km/h (1 Bft) 100,00 %
16.02.2019 22:56 4,2 C 2,8 C 1,1 C 86 % 1022,7 hPa 0,0 l/m 0 min 0 min 0 W/m 3,2 km/h (1 Bft) 97,83 %
16.02.2019 22:58 4,2 C 2,8 C 1,1 C 86 % 1022,6 hPa 0,0 l/m 0 min 0 min 0 W/m 0,0 km/h (0 Bft) 100,00 %
16.02.2019 23:00 4,2 C 2,8 C 1,1 C 86 % 1022,6 hPa 0,0 l/m 0 min 0 min 0 W/m 0,0 km/h (0 Bft) 97,87 %
16.02.2019 23:02 4,2 C 2,8 C 1,1 C 86 % 1022,7 hPa 0,0 l/m 0 min 0 min 0 W/m 0,0 km/h (0 Bft) 97,87 %
16.02.2019 23:04 4,2 C 2,8 C 1,1 C 86 % 1022,7 hPa 0,0 l/m 0 min 0 min 0 W/m 3,2 km/h (1 Bft) 97,87 %
16.02.2019 23:06 4,1 C 2,8 C 1,1 C 86 % 1022,7 hPa 0,0 l/m 0 min 0 min 0 W/m 0,0 km/h (0 Bft) 94,83 %
16.02.2019 23:08 4,1 C 2,8 C 1,1 C 86 % 1022,7 hPa 0,0 l/m 0 min 0 min 0 W/m 0,0 km/h (0 Bft) 100,00 %
16.02.2019 23:10 4,1 C 2,8 C 1,1 C 86 % 1022,7 hPa 0,0 l/m 0 min 0 min 0 W/m 0,0 km/h (0 Bft) 97,87 %
16.02.2019 23:12 4,1 C 2,8 C 1,1 C 86 % 1022,7 hPa 0,0 l/m 0 min 0 min 0 W/m 0,0 km/h (0 Bft) 95,74 %
16.02.2019 23:14 4,0 C 2,8 C 1,1 C 86 % 1022,6 hPa 0,0 l/m 0 min 0 min 0 W/m 0,0 km/h (0 Bft) 95,74 %
16.02.2019 23:16 4,0 C 2,8 C 1,1 C 86 % 1022,7 hPa 0,0 l/m 0 min 0 min 0 W/m 0,0 km/h (0 Bft) 97,87 %
16.02.2019 23:18 3,9 C 2,8 C 1,1 C 86 % 1022,7 hPa 0,0 l/m 0 min 0 min 0 W/m 0,0 km/h (0 Bft) 97,87 %
16.02.2019 23:20 3,9 C 2,8 C 1,1 C 86 % 1022,7 hPa 0,0 l/m 0 min 0 min 0 W/m 0,0 km/h (0 Bft) 97,83 %
16.02.2019 23:22 3,9 C 2,8 C 0,6 C 86 % 1022,7 hPa 0,0 l/m 0 min 0 min 0 W/m 0,0 km/h (0 Bft) 97,87 %
16.02.2019 23:24 3,9 C 2,2 C 1,1 C 86 % 1022,7 hPa 0,0 l/m 0 min 0 min 0 W/m 3,2 km/h (1 Bft) 95,74 %
16.02.2019 23:26 3,9 C 2,2 C 0,6 C 86 % 1022,7 hPa 0,0 l/m 0 min 0 min 0 W/m 0,0 km/h (0 Bft) 95,74 %
16.02.2019 23:28 3,8 C 2,2 C 0,6 C 86 % 1022,7 hPa 0,0 l/m 0 min 0 min 0 W/m 0,0 km/h (0 Bft) 95,74 %
16.02.2019 23:30 3,8 C 2,2 C 0,6 C 86 % 1022,7 hPa 0,0 l/m 0 min 0 min 0 W/m 0,0 km/h (0 Bft) 95,65 %
16.02.2019 23:32 3,8 C 2,2 C 0,6 C 86 % 1022,7 hPa 0,0 l/m 0 min 0 min 0 W/m 0,0 km/h (0 Bft) 95,74 %
16.02.2019 23:34 3,7 C 2,2 C 0,6 C 86 % 1022,6 hPa 0,0 l/m 0 min 0 min 0 W/m 0,0 km/h (0 Bft) 97,87 %
16.02.2019 23:36 3,7 C 2,2 C 0,6 C 86 % 1022,6 hPa 0,0 l/m 0 min 0 min 0 W/m 0,0 km/h (0 Bft) 97,87 %
16.02.2019 23:38 3,7 C 2,2 C 0,6 C 86 % 1022,7 hPa 0,0 l/m 0 min 0 min 0 W/m 0,0 km/h (0 Bft) 97,87 %
16.02.2019 23:40 3,7 C 2,2 C 0,6 C 86 % 1022,7 hPa 0,0 l/m 0 min 0 min 0 W/m 0,0 km/h (0 Bft) 97,87 %
16.02.2019 23:42 3,6 C 2,8 C 0,6 C 86 % 1022,8 hPa 0,0 l/m 0 min 0 min 0 W/m 0,0 km/h (0 Bft) 95,65 %
16.02.2019 23:44 3,6 C 2,8 C 0,6 C 86 % 1022,8 hPa 0,0 l/m 0 min 0 min 0 W/m 0,0 km/h (0 Bft) 97,87 %
16.02.2019 23:46 3,6 C 2,8 C 0,6 C 86 % 1022,7 hPa 0,0 l/m 0 min 0 min 0 W/m 0,0 km/h (0 Bft) 95,74 %
16.02.2019 23:48 3,6 C 2,8 C 0,6 C 86 % 1022,7 hPa 0,0 l/m 0 min 0 min 0 W/m 0,0 km/h (0 Bft) 95,74 %
16.02.2019 23:50 3,6 C 2,8 C 0,6 C 86 % 1022,8 hPa 0,0 l/m 0 min 0 min 0 W/m 0,0 km/h (0 Bft) 97,87 %
16.02.2019 23:52 3,5 C 2,2 C 0,6 C 86 % 1022,7 hPa 0,0 l/m 0 min 0 min 0 W/m 0,0 km/h (0 Bft) 97,87 %
16.02.2019 23:54 3,5 C 2,2 C 0,6 C 86 % 1022,7 hPa 0,0 l/m 0 min 0 min 0 W/m 0,0 km/h (0 Bft) 97,83 %
16.02.2019 23:56 3,4 C 2,2 C 0,6 C 86 % 1022,7 hPa 0,0 l/m 0 min 0 min 0 W/m 0,0 km/h (0 Bft) 97,87 %
16.02.2019 23:58 3,4 C 1,7 C 0,6 C 86 % 1022,7 hPa 0,0 l/m 0 min 0 min 0 W/m 0,0 km/h (0 Bft) 97,87 %
_ Min-Zeit 23:56 23:58 23:22 15:20 22:38 - - - - 17:48 04:04
Minimum _ 3,4 C 1,7 C 0,6 C 50 % 1022,6 hPa - - - - 0,0 km/h (0 Bft) 55,32 %
_ Max-Zeit 14:50 13:26 12:54 22:34 00:07 00:00 12:07 00:00 12:42 09:38 00:16
Maximum _ 16,4 C 22,2 C 21,1 C 86 % 1024,9 hPa 0,0 l/m 3 min 0 min 505 W/m 29,0 km/h
O-SO (5 Bft)
100,00 %
Durchschnitt _ 8,5 C 8,9 C 6,5 C 71 % 1023,6 hPa #0,0 l/m #6:56 h #0 min. 276 W/m 10,1 km/h (2 Bft) 95,29 %
© 2019 W. Hausmann